Observation data for Weinert on 05/24/2020      Previous  Date  Next       Current Mesonet Observations  Soil Data  Daily Summary Page  Observations in Plain Language
KWE1 240500Z 36014G19KT 19/15 A2982 RMK A01 T01930150  RH  076%=      5-min Rain = 0
KWE1 240501Z 00015G20KT 19/15 A2982 RMK A01 T01920151  RH  077%=      5-min Rain = 0
KWE1 240502Z 35015KT 19/15 A2982 RMK A01 T01920151  RH  077%=      5-min Rain = 0
KWE1 240503Z 35017KT 19/15 A2982 RMK A01 T01920150  RH  077%=      5-min Rain = 0
KWE1 240504Z 35015KT 19/15 A2982 RMK A01 T01920151  RH  077%=      5-min Rain = 0
KWE1 240505Z 35014KT 19/15 A2982 RMK A01 T01920151  RH  077%=      5-min Rain = 0
KWE1 240506Z 36014KT 19/15 A2982 RMK A01 T01910151  RH  077%=      5-min Rain = 0
KWE1 240507Z 00014KT 19/15 A2981 RMK A01 T01910151  RH  078%=      5-min Rain = 0
KWE1 240508Z 35013KT 19/15 A2982 RMK A01 T01910152  RH  078%=      5-min Rain = 0
KWE1 240509Z 35014KT 19/15 A2982 RMK A01 T01900152  RH  078%=      5-min Rain = 0
KWE1 240510Z 35017KT 19/15 A2981 RMK A01 T01900152  RH  078%=      5-min Rain = 0
KWE1 240511Z 36018KT 19/15 A2981 RMK A01 T01910151  RH  077%=      5-min Rain = 0
KWE1 240512Z 36015KT 19/15 A2981 RMK A01 T01920151  RH  077%=      5-min Rain = 0
KWE1 240513Z 36016KT 19/15 A298 RMK A01 T01920150  RH  076%=      5-min Rain = 0
KWE1 240514Z 00017KT 19/15 A298 RMK A01 T01930149  RH  076%=      5-min Rain = 0
KWE1 240515Z 00021G26KT 19/15 A298 RMK A01 T01930147  RH  075%=      5-min Rain = 0
KWE1 240516Z 01020KT 20/14 A2979 RMK A01 T01960143  RH  071%=      5-min Rain = 0
KWE1 240517Z 01018G23KT 20/14 A2979 RMK A01 T01990142  RH  069%=      5-min Rain = 0
KWE1 240518Z 01017KT 20/14 A2979 RMK A01 T02010142  RH  069%=      5-min Rain = 0
KWE1 240519Z 01017KT 20/14 A2979 RMK A01 T02020143  RH  069%=      5-min Rain = 0
KWE1 240520Z 02014G19KT 20/14 A2978 RMK A01 T02020144  RH  069%=      5-min Rain = 0
KWE1 240521Z 02018G23KT 20/14 A2978 RMK A01 T02020143  RH  069%=      5-min Rain = 0
KWE1 240522Z 02017G22KT 20/14 A2978 RMK A01 T02020142  RH  068%=      5-min Rain = 0
KWE1 240523Z 02017KT 20/14 A2978 RMK A01 T02030142  RH  068%=      5-min Rain = 0
KWE1 240524Z 02017KT 20/14 A2978 RMK A01 T02030141  RH  067%=      5-min Rain = 0
KWE1 240525Z 02016KT 20/14 A2978 RMK A01 T02030140  RH  067%=      5-min Rain = 0
KWE1 240526Z 01015KT 20/14 A2978 RMK A01 T02040138  RH  066%=      5-min Rain = 0
KWE1 240527Z 02013KT 21/14 A2979 RMK A01 T02050139  RH  066%=      5-min Rain = 0
KWE1 240528Z 03013G18KT 21/14 A2979 RMK A01 T02050140  RH  066%=      5-min Rain = 0
KWE1 240529Z 02015KT 20/14 A2979 RMK A01 T02040140  RH  067%=      5-min Rain = 0
KWE1 240530Z 02015KT 20/14 A2979 RMK A01 T02040140  RH  067%=      5-min Rain = 0
KWE1 240531Z 02015KT 20/14 A298 RMK A01 T02040141  RH  067%=      5-min Rain = 0
KWE1 240532Z 02014KT 20/14 A298 RMK A01 T02030141  RH  067%=      5-min Rain = 0
KWE1 240533Z 02012KT 20/14 A298 RMK A01 T02030141  RH  068%=      5-min Rain = 0
KWE1 240534Z 02011KT 20/14 A298 RMK A01 T02030143  RH  068%=      5-min Rain = 0
KWE1 240535Z 03009KT 20/14 A298 RMK A01 T02020144  RH  069%=      5-min Rain = 0
KWE1 240536Z 04009G15KT 20/14 A298 RMK A01 T02010143  RH  069%=      5-min Rain = 0
KWE1 240537Z 04009KT 20/14 A298 RMK A01 T02010141  RH  069%=      5-min Rain = 0
KWE1 240538Z 04009KT 20/14 A2981 RMK A01 T02010139  RH  067%=      5-min Rain = 0
KWE1 240539Z 05009KT 20/14 A2981 RMK A01 T02020138  RH  066%=      5-min Rain = 0
KWE1 240540Z 05009KT 20/14 A2981 RMK A01 T02030137  RH  066%=      5-min Rain = 0
KWE1 240541Z 07010KT 20/14 A2982 RMK A01 T02040138  RH  066%=      5-min Rain = 0
KWE1 240542Z 07008KT 20/14 A2982 RMK A01 T02040139  RH  066%=      5-min Rain = 0
KWE1 240543Z 07009KT 20/14 A2982 RMK A01 T02040141  RH  067%=      5-min Rain = 0
KWE1 240544Z 08010KT 20/14 A2982 RMK A01 T02030140  RH  067%=      5-min Rain = 0
KWE1 240545Z 08011KT 20/14 A2983 RMK A01 T02030141  RH  068%=      5-min Rain = 0
KWE1 240546Z 08010KT 20/14 A2983 RMK A01 T02020142  RH  068%=      5-min Rain = 0
KWE1 240547Z 08009KT 20/14 A2983 RMK A01 T02010143  RH  070%=      5-min Rain = 0
KWE1 240548Z 07009KT 20/14 A2983 RMK A01 T01990144  RH  070%=      5-min Rain = 0
KWE1 240549Z 07009KT 20/14 A2983 RMK A01 T01990142  RH  070%=      5-min Rain = 0
KWE1 240550Z 07009KT 20/14 A2982 RMK A01 T01990142  RH  069%=      5-min Rain = 0
KWE1 240551Z 06010KT 20/14 A2982 RMK A01 T01990140  RH  069%=      5-min Rain = 0
KWE1 240552Z 07011KT 20/14 A2982 RMK A01 T02000140  RH  068%=      5-min Rain = 0
KWE1 240553Z 07011KT 20/14 A2982 RMK A01 T02010140  RH  068%=      5-min Rain = 0
KWE1 240554Z 07011KT 20/14 A2982 RMK A01 T02010140  RH  068%=      5-min Rain = 0
KWE1 240555Z 07010KT 20/14 A2982 RMK A01 T02010141  RH  068%=      5-min Rain = 0
KWE1 240556Z 07009KT 20/14 A2982 RMK A01 T02010142  RH  069%=      5-min Rain = 0
KWE1 240557Z 07012KT 20/14 A2981 RMK A01 T02000141  RH  069%=      5-min Rain = 0
KWE1 240558Z 07010KT 20/14 A2981 RMK A01 T02000141  RH  069%=      5-min Rain = 0
KWE1 240559Z 07010KT 20/14 A2981 RMK A01 T02000141  RH  069%=      5-min Rain = 0
KWE1 240600Z 06009KT 20/14 A2981 RMK A01 T02000140  RH  068%=      5-min Rain = 0
KWE1 240601Z 07011KT 20/14 A2981 RMK A01 T02000140  RH  068%=      5-min Rain = 0
KWE1 240602Z 06010KT 20/14 A2981 RMK A01 T02000140  RH  068%=      5-min Rain = 0
KWE1 240603Z 06010KT 20/14 A2981 RMK A01 T02000141  RH  069%=      5-min Rain = 0
KWE1 240604Z 06009KT 20/14 A2981 RMK A01 T02000143  RH  069%=      5-min Rain = 0
KWE1 240605Z 07009KT 20/14 A2981 RMK A01 T02000142  RH  069%=      5-min Rain = 0
KWE1 240606Z 07009KT 20/14 A2981 RMK A01 T01990141  RH  069%=      5-min Rain = 0
KWE1 240607Z 08009KT 20/14 A2981 RMK A01 T01990141  RH  069%=      5-min Rain = 0
KWE1 240608Z 08011KT 20/14 A2981 RMK A01 T01990140  RH  069%=      5-min Rain = 0
KWE1 240609Z 08009KT 20/14 A2981 RMK A01 T02000139  RH  068%=      5-min Rain = 0
KWE1 240610Z 08010KT 20/14 A2981 RMK A01 T02000140  RH  068%=      5-min Rain = 0
KWE1 240611Z 08011KT 20/14 A2982 RMK A01 T02010139  RH  067%=      5-min Rain = 0
KWE1 240612Z 08009KT 20/14 A2982 RMK A01 T02010139  RH  068%=      5-min Rain = 0
KWE1 240613Z 08009KT 20/14 A2982 RMK A01 T02010140  RH  068%=      5-min Rain = 0
KWE1 240614Z 08010KT 20/14 A2982 RMK A01 T02010139  RH  067%=      5-min Rain = 0
KWE1 240615Z 09009KT 20/14 A2982 RMK A01 T02010139  RH  067%=      5-min Rain = 0
KWE1 240616Z 09010KT 20/14 A2982 RMK A01 T02010141  RH  068%=      5-min Rain = 0
KWE1 240617Z 10008KT 20/14 A2982 RMK A01 T02000142  RH  069%=      5-min Rain = 0
KWE1 240618Z 11010KT 20/14 A2982 RMK A01 T01990142  RH  070%=      5-min Rain = 0
KWE1 240619Z 11010KT 20/14 A2982 RMK A01 T01990141  RH  069%=      5-min Rain = 0
KWE1 240620Z 12010KT 20/14 A2982 RMK A01 T01990142  RH  070%=      5-min Rain = 0
KWE1 240621Z 12010KT 20/15 A2982 RMK A01 T01980145  RH  072%=      5-min Rain = 0
KWE1 240622Z 12011KT 20/15 A2982 RMK A01 T01960146  RH  073%=      5-min Rain = 0
KWE1 240623Z 12011KT 20/15 A2982 RMK A01 T01950147  RH  074%=      5-min Rain = 0
KWE1 240624Z 12012KT 20/15 A2983 RMK A01 T01950146  RH  073%=      5-min Rain = 0
KWE1 240625Z 13011KT 20/14 A2983 RMK A01 T01950144  RH  073%=      5-min Rain = 0
KWE1 240626Z 13013KT 20/14 A2983 RMK A01 T01960144  RH  072%=      5-min Rain = 0
KWE1 240627Z 13013KT 20/15 A2983 RMK A01 T01960146  RH  073%=      5-min Rain = 0
KWE1 240628Z 13012KT 20/15 A2983 RMK A01 T01950147  RH  073%=      5-min Rain = 0
KWE1 240629Z 13012KT 19/15 A2983 RMK A01 T01940147  RH  074%=      5-min Rain = 0
KWE1 240630Z 12011KT 19/15 A2983 RMK A01 T01930147  RH  075%=      5-min Rain = 0
KWE1 240631Z 12012KT 19/15 A2983 RMK A01 T01930147  RH  074%=      5-min Rain = 0
KWE1 240632Z 13010KT 19/15 A2983 RMK A01 T01930146  RH  074%=      5-min Rain = 0
KWE1 240633Z 13010KT 19/15 A2982 RMK A01 T01930148  RH  075%=      5-min Rain = 0
KWE1 240634Z 13010KT 19/15 A2982 RMK A01 T01930150  RH  076%=      5-min Rain = 0
KWE1 240635Z 13011KT 19/15 A2982 RMK A01 T01920152  RH  077%=      5-min Rain = 0
KWE1 240636Z 13012KT 19/15 A2982 RMK A01 T01910154  RH  079%=      5-min Rain = 0
KWE1 240637Z 13012KT 19/15 A2982 RMK A01 T01890154  RH  080%=      5-min Rain = 0
KWE1 240638Z 13011KT 19/16 A2982 RMK A01 T01880155  RH  081%=      5-min Rain = 0
KWE1 240639Z 13011KT 19/16 A2982 RMK A01 T01870155  RH  082%=      5-min Rain = 0
KWE1 240640Z 13009KT 19/15 A2982 RMK A01 T01870154  RH  081%=      5-min Rain = 0
KWE1 240641Z 13011KT 19/15 A2982 RMK A01 T01870154  RH  081%=      5-min Rain = 0
KWE1 240642Z 12009KT 19/15 A2982 RMK A01 T01870152  RH  080%=      5-min Rain = 0
KWE1 240643Z 12009KT 19/15 A2982 RMK A01 T01880152  RH  079%=      5-min Rain = 0
KWE1 240644Z 12009KT 19/15 A2981 RMK A01 T01880151  RH  079%=      5-min Rain = 0
KWE1 240645Z 11010KT 19/15 A2981 RMK A01 T01880149  RH  078%=      5-min Rain = 0
KWE1 240646Z 12009G14KT 19/15 A2981 RMK A01 T01900148  RH  076%=      5-min Rain = 0
KWE1 240647Z 10011KT 19/15 A2981 RMK A01 T01920146  RH  074%=      5-min Rain = 0
KWE1 240648Z 12010KT 20/14 A2981 RMK A01 T01950144  RH  072%=      5-min Rain = 0
KWE1 240649Z 11007KT 20/15 A2981 RMK A01 T01970146  RH  072%=      5-min Rain = 0
KWE1 240650Z 12008KT 20/15 A2981 RMK A01 T01970147  RH  073%=      5-min Rain = 0
KWE1 240651Z 12008KT 20/15 A2981 RMK A01 T01960145  RH  073%=      5-min Rain = 0
KWE1 240652Z 13007KT 20/15 A2981 RMK A01 T01960146  RH  073%=      5-min Rain = 0
KWE1 240653Z 12008KT 20/15 A2981 RMK A01 T01960146  RH  073%=      5-min Rain = 0
KWE1 240654Z 13008KT 20/15 A2981 RMK A01 T01950147  RH  074%=      5-min Rain = 0
KWE1 240655Z 13008KT 20/15 A2981 RMK A01 T01950147  RH  074%=      5-min Rain = 0
KWE1 240656Z 13009KT 19/15 A2981 RMK A01 T01940147  RH  074%=      5-min Rain = 0
KWE1 240657Z 13009KT 19/15 A2981 RMK A01 T01940146  RH  074%=      5-min Rain = 0
KWE1 240658Z 12007KT 19/15 A2981 RMK A01 T01930146  RH  074%=      5-min Rain = 0
KWE1 240659Z 13007KT 19/15 A2981 RMK A01 T01940146  RH  074%=      5-min Rain = 0
KWE1 240700Z 14009KT 19/15 A298 RMK A01 T01940147  RH  074%=      5-min Rain = 0
KWE1 240701Z 13009KT 19/15 A298 RMK A01 T01940149  RH  075%=      5-min Rain = 0
KWE1 240702Z 13007KT 19/15 A298 RMK A01 T01920150  RH  076%=      5-min Rain = 0
KWE1 240703Z 13007KT 19/15 A298 RMK A01 T01910150  RH  077%=      5-min Rain = 0
KWE1 240704Z 14009KT 19/15 A298 RMK A01 T01900150  RH  078%=      5-min Rain = 0
KWE1 240705Z 14008KT 19/15 A298 RMK A01 T01890150  RH  078%=      5-min Rain = 0
KWE1 240706Z 13008KT 19/15 A298 RMK A01 T01890150  RH  078%=      5-min Rain = 0
KWE1 240707Z 13009KT 19/15 A298 RMK A01 T01890149  RH  077%=      5-min Rain = 0
KWE1 240708Z 13007KT 19/15 A298 RMK A01 T01900148  RH  076%=      5-min Rain = 0
KWE1 240709Z 13007KT 19/15 A298 RMK A01 T01910149  RH  077%=      5-min Rain = 0
KWE1 240710Z 13009KT 19/15 A298 RMK A01 T01910149  RH  077%=      5-min Rain = 0
KWE1 240711Z 13009KT 19/15 A2979 RMK A01 T01910148  RH  076%=      5-min Rain = 0
KWE1 240712Z 13008KT 19/15 A2979 RMK A01 T01920148  RH  076%=      5-min Rain = 0
KWE1 240713Z 14008KT 19/15 A2979 RMK A01 T01920150  RH  077%=      5-min Rain = 0
KWE1 240714Z 14010KT 19/15 A2979 RMK A01 T01910152  RH  078%=      5-min Rain = 0
KWE1 240715Z 14009KT 19/15 A2979 RMK A01 T01900153  RH  079%=      5-min Rain = 0
KWE1 240716Z 14009KT 19/15 A2979 RMK A01 T01890153  RH  080%=      5-min Rain = 0
KWE1 240717Z 14009KT 19/15 A2979 RMK A01 T01880153  RH  080%=      5-min Rain = 0
KWE1 240718Z 14010KT 19/15 A2979 RMK A01 T01870154  RH  081%=      5-min Rain = 0
KWE1 240719Z 15009KT 19/15 A2979 RMK A01 T01860154  RH  081%=      5-min Rain = 0
KWE1 240720Z 15010KT 19/15 A298 RMK A01 T01860154  RH  082%=      5-min Rain = 0
KWE1 240721Z 15008KT 19/15 A298 RMK A01 T01860153  RH  081%=      5-min Rain = 0
KWE1 240722Z 15009KT 19/15 A2979 RMK A01 T01860154  RH  082%=      5-min Rain = 0
KWE1 240723Z 14008KT 19/15 A2979 RMK A01 T01860153  RH  081%=      5-min Rain = 0
KWE1 240724Z 15008KT 19/15 A298 RMK A01 T01860153  RH  081%=      5-min Rain = 0
KWE1 240725Z 14009KT 19/15 A2979 RMK A01 T01860153  RH  081%=      5-min Rain = 0
KWE1 240726Z 14009KT 19/15 A2979 RMK A01 T01860154  RH  081%=      5-min Rain = 0
KWE1 240727Z 14009KT 19/15 A2979 RMK A01 T01860154  RH  082%=      5-min Rain = 0
KWE1 240728Z 14010KT 19/15 A2979 RMK A01 T01860154  RH  082%=      5-min Rain = 0
KWE1 240729Z 15010KT 19/16 A2979 RMK A01 T01850155  RH  082%=      5-min Rain = 0
KWE1 240730Z 14009KT 19/16 A2979 RMK A01 T01850155  RH  083%=      5-min Rain = 0
KWE1 240731Z 14009KT 19/16 A2979 RMK A01 T01850155  RH  083%=      5-min Rain = 0
KWE1 240732Z 14009KT 18/16 A2979 RMK A01 T01840155  RH  083%=      5-min Rain = 0
KWE1 240733Z 14009KT 19/16 A2979 RMK A01 T01850155  RH  083%=      5-min Rain = 0
KWE1 240734Z 14010KT 18/15 A2979 RMK A01 T01840154  RH  083%=      5-min Rain = 0
KWE1 240735Z 14009KT 19/16 A2979 RMK A01 T01850155  RH  083%=      5-min Rain = 0
KWE1 240736Z 14008KT 19/16 A2979 RMK A01 T01850155  RH  083%=      5-min Rain = 0
KWE1 240737Z 14007KT 19/16 A2979 RMK A01 T01850155  RH  083%=      5-min Rain = 0
KWE1 240738Z 14008KT 19/16 A2979 RMK A01 T01850156  RH  083%=      5-min Rain = 0
KWE1 240739Z 14008KT 19/16 A2979 RMK A01 T01850156  RH  083%=      5-min Rain = 0
KWE1 240740Z 14007KT 19/16 A2979 RMK A01 T01850155  RH  083%=      5-min Rain = 0
KWE1 240741Z 14007KT 19/16 A2979 RMK A01 T01850155  RH  083%=      5-min Rain = 0
KWE1 240742Z 14007KT 18/16 A2979 RMK A01 T01840155  RH  083%=      5-min Rain = 0
KWE1 240743Z 14007KT 19/16 A2979 RMK A01 T01850155  RH  083%=      5-min Rain = 0
KWE1 240744Z 14008KT 19/16 A2979 RMK A01 T01850155  RH  083%=      5-min Rain = 0
KWE1 240745Z 14007KT 19/16 A2979 RMK A01 T01850155  RH  083%=      5-min Rain = 0
KWE1 240746Z 14007KT 19/16 A2979 RMK A01 T01850155  RH  083%=      5-min Rain = 0
KWE1 240747Z 14007KT 19/16 A2979 RMK A01 T01850155  RH  083%=      5-min Rain = 0
KWE1 240748Z 14007KT 19/16 A2979 RMK A01 T01850155  RH  083%=      5-min Rain = 0
KWE1 240749Z 15007KT 19/16 A2979 RMK A01 T01850155  RH  083%=      5-min Rain = 0
KWE1 240750Z 15007KT 19/16 A2979 RMK A01 T01850156  RH  083%=      5-min Rain = 0
KWE1 240751Z 14008KT 19/16 A2979 RMK A01 T01850155  RH  083%=      5-min Rain = 0
KWE1 240752Z 15008KT 19/16 A2979 RMK A01 T01850155  RH  083%=      5-min Rain = 0
KWE1 240753Z 15008KT 19/16 A2979 RMK A01 T01850155  RH  082%=      5-min Rain = 0
KWE1 240754Z 15008KT 19/16 A2979 RMK A01 T01850155  RH  082%=      5-min Rain = 0
KWE1 240755Z 15008KT 19/16 A2979 RMK A01 T01850155  RH  082%=      5-min Rain = 0
KWE1 240756Z 15008KT 19/16 A2979 RMK A01 T01850155  RH  082%=      5-min Rain = 0
KWE1 240757Z 15007KT 19/16 A2979 RMK A01 T01860155  RH  082%=      5-min Rain = 0
KWE1 240758Z 15008KT 19/16 A2979 RMK A01 T01850155  RH  083%=      5-min Rain = 0
KWE1 240759Z 15007KT 19/15 A2979 RMK A01 T01850154  RH  082%=      5-min Rain = 0
KWE1 240800Z 16008KT 19/15 A298 RMK A01 T01850154  RH  082%=      5-min Rain = 0
KWE1 240801Z 16008KT 19/15 A298 RMK A01 T01850154  RH  082%=      5-min Rain = 0
KWE1 240802Z 16009KT 19/16 A298 RMK A01 T01850155  RH  082%=      5-min Rain = 0
KWE1 240803Z 16008KT 19/15 A298 RMK A01 T01850154  RH  082%=      5-min Rain = 0
KWE1 240804Z 16009KT 19/15 A298 RMK A01 T01850154  RH  082%=      5-min Rain = 0
KWE1 240805Z 16009KT 19/15 A298 RMK A01 T01850154  RH  082%=      5-min Rain = 0
KWE1 240806Z 16011KT 19/15 A298 RMK A01 T01850154  RH  082%=      5-min Rain = 0
KWE1 240807Z 16011KT 19/15 A298 RMK A01 T01860154  RH  082%=      5-min Rain = 0
KWE1 240808Z 16010KT 19/15 A298 RMK A01 T01860154  RH  082%=      5-min Rain = 0
KWE1 240809Z 16010KT 19/15 A298 RMK A01 T01860154  RH  081%=      5-min Rain = 0
KWE1 240810Z 16009KT 19/15 A298 RMK A01 T01870154  RH  081%=      5-min Rain = 0
KWE1 240811Z 16009KT 19/15 A298 RMK A01 T01870154  RH  081%=      5-min Rain = 0
KWE1 240812Z 16010KT 19/15 A298 RMK A01 T01870154  RH  081%=      5-min Rain = 0
KWE1 240813Z 16011KT 19/15 A2981 RMK A01 T01870154  RH  081%=      5-min Rain = 0
KWE1 240814Z 17012KT 19/16 A2981 RMK A01 T01870155  RH  082%=      5-min Rain = 0
KWE1 240815Z 16011KT 19/16 A2981 RMK A01 T01870155  RH  082%=      5-min Rain = 0
KWE1 240816Z 16011KT 19/15 A2981 RMK A01 T01870154  RH  081%=      5-min Rain = 0
KWE1 240817Z 16011KT 19/16 A2981 RMK A01 T01870155  RH  082%=      5-min Rain = 0
KWE1 240818Z 16010KT 19/16 A2981 RMK A01 T01870155  RH  082%=      5-min Rain = 0
KWE1 240819Z 15009KT 19/16 A2981 RMK A01 T01870155  RH  082%=      5-min Rain = 0
KWE1 240820Z 16009KT 19/16 A2981 RMK A01 T01870155  RH  082%=      5-min Rain = 0
KWE1 240821Z 16008KT 19/16 A2981 RMK A01 T01870155  RH  082%=      5-min Rain = 0
KWE1 240822Z 16007KT 19/16 A2981 RMK A01 T01870155  RH  082%=      5-min Rain = 0
KWE1 240823Z 15006KT 19/16 A2981 RMK A01 T01870155  RH  082%=      5-min Rain = 0
KWE1 240824Z 15007KT 19/16 A2981 RMK A01 T01870156  RH  082%=      5-min Rain = 0
KWE1 240825Z 16006KT 19/16 A2981 RMK A01 T01870156  RH  082%=      5-min Rain = 0
KWE1 240826Z 16006KT 19/16 A2981 RMK A01 T01870157  RH  083%=      5-min Rain = 0
KWE1 240827Z 16007KT 19/16 A2981 RMK A01 T01860157  RH  083%=      5-min Rain = 0
KWE1 240828Z 16007KT 19/16 A2981 RMK A01 T01860157  RH  083%=      5-min Rain = 0
KWE1 240829Z 16007KT 19/16 A2981 RMK A01 T01850157  RH  083%=      5-min Rain = 0
KWE1 240830Z 16008KT 19/16 A2981 RMK A01 T01850158  RH  084%=      5-min Rain = 0
KWE1 240831Z 16008KT 19/16 A2981 RMK A01 T01850157  RH  084%=      5-min Rain = 0
KWE1 240832Z 16008KT 19/16 A2981 RMK A01 T01850157  RH  084%=      5-min Rain = 0
KWE1 240833Z 16008KT 18/16 A2981 RMK A01 T01840157  RH  084%=      5-min Rain = 0
KWE1 240834Z 16008KT 18/16 A2981 RMK A01 T01840157  RH  084%=      5-min Rain = 0
KWE1 240835Z 16008KT 18/16 A2981 RMK A01 T01840157  RH  084%=      5-min Rain = 0
KWE1 240836Z 16007KT 18/16 A2981 RMK A01 T01830157  RH  084%=      5-min Rain = 0
KWE1 240837Z 17008KT 18/16 A2981 RMK A01 T01830156  RH  084%=      5-min Rain = 0
KWE1 240838Z 16007KT 18/16 A2981 RMK A01 T01830157  RH  085%=      5-min Rain = 0
KWE1 240839Z 17007KT 18/16 A2981 RMK A01 T01830157  RH  085%=      5-min Rain = 0
KWE1 240840Z 17007KT 18/16 A2981 RMK A01 T01830158  RH  085%=      5-min Rain = 0
KWE1 240841Z 16007KT 18/16 A2981 RMK A01 T01820158  RH  086%=      5-min Rain = 0
KWE1 240842Z 16007KT 18/16 A2981 RMK A01 T01820158  RH  086%=      5-min Rain = 0
KWE1 240843Z 16006KT 18/16 A2981 RMK A01 T01820158  RH  086%=      5-min Rain = 0
KWE1 240844Z 16007KT 18/16 A2981 RMK A01 T01810158  RH  086%=      5-min Rain = 0
KWE1 240845Z 16007KT 18/16 A2981 RMK A01 T01810157  RH  086%=      5-min Rain = 0
KWE1 240846Z 16007KT 18/16 A2981 RMK A01 T01810157  RH  086%=      5-min Rain = 0
KWE1 240847Z 16006KT 18/16 A2981 RMK A01 T01810158  RH  086%=      5-min Rain = 0
KWE1 240848Z 16006KT 18/16 A2981 RMK A01 T01810158  RH  086%=      5-min Rain = 0
KWE1 240849Z 17006KT 18/16 A2981 RMK A01 T01810158  RH  087%=      5-min Rain = 0
KWE1 240850Z 17006KT 18/16 A2981 RMK A01 T01800158  RH  087%=      5-min Rain = 0
KWE1 240851Z 17005KT 18/16 A2981 RMK A01 T01800158  RH  087%=      5-min Rain = 0
KWE1 240852Z 17005KT 18/16 A2981 RMK A01 T01800158  RH  087%=      5-min Rain = 0
KWE1 240853Z 17004KT 18/16 A2981 RMK A01 T01800158  RH  087%=      5-min Rain = 0
KWE1 240854Z 16004KT 18/16 A2981 RMK A01 T01810158  RH  087%=      5-min Rain = 0
KWE1 240855Z 16005KT 18/16 A2981 RMK A01 T01800158  RH  087%=      5-min Rain = 0
KWE1 240856Z 17005KT 18/16 A2981 RMK A01 T01800157  RH  086%=      5-min Rain = 0
KWE1 240857Z 17004KT 18/16 A2981 RMK A01 T01800157  RH  086%=      5-min Rain = 0
KWE1 240858Z 18004KT 18/16 A2981 RMK A01 T01810158  RH  086%=      5-min Rain = 0
KWE1 240859Z 18004KT 18/16 A2981 RMK A01 T01800158  RH  087%=      5-min Rain = 0
KWE1 240900Z 19006KT 18/16 A2981 RMK A01 T01810158  RH  087%=      5-min Rain = 0
KWE1 240901Z 18006KT 18/16 A2981 RMK A01 T01810158  RH  087%=      5-min Rain = 0
KWE1 240902Z 18005KT 18/16 A2981 RMK A01 T01800158  RH  087%=      5-min Rain = 0
KWE1 240903Z 18005KT 18/16 A2982 RMK A01 T01800158  RH  086%=      5-min Rain = 0
KWE1 240904Z 18005KT 18/16 A2982 RMK A01 T01810157  RH  086%=      5-min Rain = 0
KWE1 240905Z 18005KT 18/16 A2982 RMK A01 T01810158  RH  086%=      5-min Rain = 0
KWE1 240906Z 18006KT 18/16 A2982 RMK A01 T01810158  RH  086%=      5-min Rain = 0
KWE1 240907Z 18004KT 18/16 A2982 RMK A01 T01810158  RH  086%=      5-min Rain = 0
KWE1 240908Z 19005KT 18/16 A2982 RMK A01 T01810157  RH  086%=      5-min Rain = 0
KWE1 240909Z 19004KT 18/16 A2982 RMK A01 T01810157  RH  086%=      5-min Rain = 0
KWE1 240910Z 19004KT 18/16 A2982 RMK A01 T01810157  RH  086%=      5-min Rain = 0
KWE1 240911Z 20003KT 18/16 A2982 RMK A01 T01810157  RH  086%=      5-min Rain = 0
KWE1 240912Z 19003KT 18/16 A2982 RMK A01 T01810157  RH  086%=      5-min Rain = 0
KWE1 240913Z 21002KT 18/16 A2982 RMK A01 T01810156  RH  085%=      5-min Rain = 0
KWE1 240914Z 20002KT 18/16 A2982 RMK A01 T01810156  RH  085%=      5-min Rain = 0
KWE1 240915Z 20003KT 18/16 A2982 RMK A01 T01810156  RH  085%=      5-min Rain = 0
KWE1 240916Z 21002KT 18/16 A2982 RMK A01 T01810156  RH  085%=      5-min Rain = 0
KWE1 240917Z 19001KT 18/16 A2982 RMK A01 T01810156  RH  085%=      5-min Rain = 0
KWE1 240918Z 19002KT 18/16 A2983 RMK A01 T01810156  RH  085%=      5-min Rain = 0
KWE1 240919Z 18003KT 18/16 A2982 RMK A01 T01810156  RH  086%=      5-min Rain = 0
KWE1 240920Z 18002KT 18/16 A2982 RMK A01 T01810157  RH  086%=      5-min Rain = 0
KWE1 240921Z 19002KT 18/16 A2982 RMK A01 T01800157  RH  086%=      5-min Rain = 0
KWE1 240922Z 21002KT 18/16 A2983 RMK A01 T01800157  RH  086%=      5-min Rain = 0
KWE1 240923Z 19002KT 18/16 A2983 RMK A01 T01800157  RH  086%=      5-min Rain = 0
KWE1 240924Z 19003KT 18/16 A2983 RMK A01 T01800157  RH  086%=      5-min Rain = 0
KWE1 240925Z 18002KT 18/16 A2982 RMK A01 T01800158  RH  087%=      5-min Rain = 0
KWE1 240926Z 18003KT 18/16 A2983 RMK A01 T01800157  RH  087%=      5-min Rain = 0
KWE1 240927Z 18005KT 18/16 A2983 RMK A01 T01810158  RH  087%=      5-min Rain = 0
KWE1 240928Z 19004KT 18/16 A2983 RMK A01 T01810158  RH  086%=      5-min Rain = 0
KWE1 240929Z 18005KT 18/16 A2983 RMK A01 T01810158  RH  086%=      5-min Rain = 0
KWE1 240930Z 18005KT 18/16 A2983 RMK A01 T01820157  RH  086%=      5-min Rain = 0
KWE1 240931Z 18004KT 18/16 A2983 RMK A01 T01820157  RH  085%=      5-min Rain = 0
KWE1 240932Z 18005KT 18/16 A2983 RMK A01 T01820157  RH  085%=      5-min Rain = 0
KWE1 240933Z 17004KT 18/16 A2983 RMK A01 T01830156  RH  084%=      5-min Rain = 0
KWE1 240934Z 17004KT 18/16 A2982 RMK A01 T01830157  RH  084%=      5-min Rain = 0
KWE1 240935Z 18004KT 18/16 A2982 RMK A01 T01830156  RH  084%=      5-min Rain = 0
KWE1 240936Z 17004KT 18/16 A2982 RMK A01 T01830156  RH  084%=      5-min Rain = 0
KWE1 240937Z 17005KT 18/16 A2982 RMK A01 T01830156  RH  084%=      5-min Rain = 0
KWE1 240938Z 16004KT 18/16 A2982 RMK A01 T01830156  RH  084%=      5-min Rain = 0
KWE1 240939Z 15004KT 18/16 A2982 RMK A01 T01830156  RH  084%=      5-min Rain = 0
KWE1 240940Z 15004KT 18/16 A2982 RMK A01 T01830156  RH  084%=      5-min Rain = 0
KWE1 240941Z 15004KT 18/16 A2982 RMK A01 T01830156  RH  084%=      5-min Rain = 0
KWE1 240942Z 15003KT 18/16 A2982 RMK A01 T01830156  RH  084%=      5-min Rain = 0
KWE1 240943Z 16004KT 18/16 A2982 RMK A01 T01830156  RH  084%=      5-min Rain = 0
KWE1 240944Z 16003KT 18/16 A2982 RMK A01 T01830156  RH  084%=      5-min Rain = 0
KWE1 240945Z 17003KT 18/16 A2982 RMK A01 T01830157  RH  085%=      5-min Rain = 0
KWE1 240946Z 16004KT 18/16 A2982 RMK A01 T01830157  RH  085%=      5-min Rain = 0
KWE1 240947Z 16005KT 18/16 A2982 RMK A01 T01830157  RH  085%=      5-min Rain = 0
KWE1 240948Z 17004KT 18/16 A2982 RMK A01 T01830156  RH  084%=      5-min Rain = 0
KWE1 240949Z 18004KT 18/16 A2982 RMK A01 T01830157  RH  085%=      5-min Rain = 0
KWE1 240950Z 17004KT 18/16 A2982 RMK A01 T01830157  RH  085%=      5-min Rain = 0
KWE1 240951Z 17003KT 18/16 A2982 RMK A01 T01830158  RH  085%=      5-min Rain = 0
KWE1 240952Z 17004KT 18/16 A2982 RMK A01 T01830158  RH  086%=      5-min Rain = 0
KWE1 240953Z 18004KT 18/16 A2982 RMK A01 T01820158  RH  086%=      5-min Rain = 0
KWE1 240954Z 18004KT 18/16 A2982 RMK A01 T01820159  RH  086%=      5-min Rain = 0
KWE1 240955Z 19005KT 18/16 A2982 RMK A01 T01820158  RH  086%=      5-min Rain = 0
KWE1 240956Z 18005KT 18/16 A2982 RMK A01 T01820158  RH  086%=      5-min Rain = 0
KWE1 240957Z 18006KT 18/16 A2982 RMK A01 T01820158  RH  086%=      5-min Rain = 0
KWE1 240958Z 18005KT 18/16 A2982 RMK A01 T01820158  RH  086%=      5-min Rain = 0
KWE1 240959Z 18004KT 18/16 A2982 RMK A01 T01820158  RH  086%=      5-min Rain = 0
KWE1 241000Z 19003KT 18/16 A2982 RMK A01 T01820158  RH  086%=      5-min Rain = 0
KWE1 241001Z 19004KT 18/16 A2982 RMK A01 T01820159  RH  087%=      5-min Rain = 0
KWE1 241002Z 19005KT 18/16 A2982 RMK A01 T01820159  RH  087%=      5-min Rain = 0
KWE1 241003Z 19005KT 18/16 A2983 RMK A01 T01820159  RH  087%=      5-min Rain = 0
KWE1 241004Z 19005KT 18/16 A2983 RMK A01 T01820159  RH  086%=      5-min Rain = 0
KWE1 241005Z 18005KT 18/16 A2983 RMK A01 T01820159  RH  086%=      5-min Rain = 0
KWE1 241006Z 18005KT 18/16 A2983 RMK A01 T01820159  RH  087%=      5-min Rain = 0
KWE1 241007Z 19005KT 18/16 A2982 RMK A01 T01820159  RH  086%=      5-min Rain = 0
KWE1 241008Z 18005KT 18/16 A2982 RMK A01 T01830159  RH  086%=      5-min Rain = 0
KWE1 241009Z 18008KT 18/16 A2983 RMK A01 T01830158  RH  085%=      5-min Rain = 0
KWE1 241010Z 17009KT 18/16 A2983 RMK A01 T01840158  RH  085%=      5-min Rain = 0
KWE1 241011Z 17008KT 19/16 A2983 RMK A01 T01850158  RH  084%=      5-min Rain = 0
KWE1 241012Z 17008KT 19/16 A2982 RMK A01 T01850158  RH  084%=      5-min Rain = 0
KWE1 241013Z 17007KT 19/16 A2983 RMK A01 T01850158  RH  084%=      5-min Rain = 0
KWE1 241014Z 17008KT 19/16 A2983 RMK A01 T01850158  RH  084%=      5-min Rain = 0
KWE1 241015Z 17008KT 19/16 A2983 RMK A01 T01850158  RH  084%=      5-min Rain = 0
KWE1 241016Z 17008KT 19/16 A2983 RMK A01 T01850159  RH  084%=      5-min Rain = 0
KWE1 241017Z 17008KT 19/16 A2982 RMK A01 T01850158  RH  084%=      5-min Rain = 0
KWE1 241018Z 17007KT 19/16 A2982 RMK A01 T01850158  RH  084%=      5-min Rain = 0
KWE1 241019Z 17007KT 19/16 A2982 RMK A01 T01850159  RH  085%=      5-min Rain = 0
KWE1 241020Z 18008KT 19/16 A2982 RMK A01 T01850159  RH  085%=      5-min Rain = 0
KWE1 241021Z 18007KT 19/16 A2982 RMK A01 T01850159  RH  085%=      5-min Rain = 0
KWE1 241022Z 18007KT 19/16 A2983 RMK A01 T01850159  RH  085%=      5-min Rain = 0
KWE1 241023Z 17008KT 19/16 A2983 RMK A01 T01850159  RH  085%=      5-min Rain = 0
KWE1 241024Z 18007KT 19/16 A2983 RMK A01 T01850159  RH  085%=      5-min Rain = 0
KWE1 241025Z 18007KT 19/16 A2983 RMK A01 T01850160  RH  085%=      5-min Rain = 0
KWE1 241026Z 18008KT 19/16 A2983 RMK A01 T01850159  RH  085%=      5-min Rain = 0
KWE1 241027Z 18007KT 19/16 A2983 RMK A01 T01850159  RH  085%=      5-min Rain = 0
KWE1 241028Z 18007KT 19/16 A2983 RMK A01 T01850159  RH  085%=      5-min Rain = 0
KWE1 241029Z 18008KT 19/16 A2983 RMK A01 T01850160  RH  085%=      5-min Rain = 0
KWE1 241030Z 18007KT 19/16 A2983 RMK A01 T01850160  RH  085%=      5-min Rain = 0
KWE1 241031Z 17006KT 19/16 A2983 RMK A01 T01850160  RH  085%=      5-min Rain = 0
KWE1 241032Z 17008KT 19/16 A2983 RMK A01 T01850160  RH  085%=      5-min Rain = 0
KWE1 241033Z 17008KT 19/16 A2983 RMK A01 T01850160  RH  085%=      5-min Rain = 0
KWE1 241034Z 18008KT 19/16 A2983 RMK A01 T01850160  RH  086%=      5-min Rain = 0
KWE1 241035Z 18008KT 18/16 A2983 RMK A01 T01840160  RH  085%=      5-min Rain = 0
KWE1 241036Z 17008KT 19/16 A2983 RMK A01 T01850160  RH  085%=      5-min Rain = 0
KWE1 241037Z 17008KT 19/16 A2983 RMK A01 T01850160  RH  085%=      5-min Rain = 0
KWE1 241038Z 18008KT 19/16 A2983 RMK A01 T01850160  RH  086%=      5-min Rain = 0
KWE1 241039Z 18008KT 19/16 A2983 RMK A01 T01850160  RH  085%=      5-min Rain = 0
KWE1 241040Z 18008KT 19/16 A2983 RMK A01 T01850160  RH  085%=      5-min Rain = 0
KWE1 241041Z 18008KT 19/16 A2983 RMK A01 T01850160  RH  085%=      5-min Rain = 0
KWE1 241042Z 18009KT 19/16 A2983 RMK A01 T01850160  RH  085%=      5-min Rain = 0
KWE1 241043Z 17009KT 19/16 A2983 RMK A01 T01850159  RH  085%=      5-min Rain = 0
KWE1 241044Z 18008KT 19/16 A2983 RMK A01 T01850159  RH  085%=      5-min Rain = 0
KWE1 241045Z 17009KT 19/16 A2983 RMK A01 T01850159  RH  085%=      5-min Rain = 0
KWE1 241046Z 18008KT 19/16 A2983 RMK A01 T01860159  RH  084%=      5-min Rain = 0
KWE1 241047Z 18008KT 19/16 A2983 RMK A01 T01850159  RH  085%=      5-min Rain = 0
KWE1 241048Z 18010KT 19/16 A2983 RMK A01 T01860160  RH  085%=      5-min Rain = 0
KWE1 241049Z 18008KT 19/16 A2983 RMK A01 T01860160  RH  085%=      5-min Rain = 0
KWE1 241050Z 17008KT 19/16 A2983 RMK A01 T01860160  RH  085%=      5-min Rain = 0
KWE1 241051Z 17008KT 19/16 A2983 RMK A01 T01850160  RH  085%=      5-min Rain = 0
KWE1 241052Z 18008KT 19/16 A2983 RMK A01 T01850160  RH  085%=      5-min Rain = 0
KWE1 241053Z 18008KT 19/16 A2983 RMK A01 T01850160  RH  085%=      5-min Rain = 0
KWE1 241054Z 18008KT 19/16 A2983 RMK A01 T01850161  RH  085%=      5-min Rain = 0
KWE1 241055Z 18009KT 19/16 A2983 RMK A01 T01850160  RH  086%=      5-min Rain = 0
KWE1 241056Z 18007KT 19/16 A2983 RMK A01 T01850160  RH  085%=      5-min Rain = 0
KWE1 241057Z 18008KT 19/16 A2983 RMK A01 T01850160  RH  085%=      5-min Rain = 0
KWE1 241058Z 18008KT 19/16 A2983 RMK A01 T01850160  RH  085%=      5-min Rain = 0
KWE1 241059Z 17008KT 19/16 A2983 RMK A01 T01850160  RH  085%=      5-min Rain = 0
KWE1 241100Z 17007KT 19/16 A2983 RMK A01 T01850160  RH  085%=      5-min Rain = 0
KWE1 241101Z 18008KT 19/16 A2983 RMK A01 T01850160  RH  085%=      5-min Rain = 0
KWE1 241102Z 18008KT 19/16 A2983 RMK A01 T01850161  RH  085%=      5-min Rain = 0
KWE1 241103Z 17008KT 19/16 A2983 RMK A01 T01850160  RH  085%=      5-min Rain = 0
KWE1 241104Z 17008KT 19/16 A2983 RMK A01 T01860161  RH  085%=      5-min Rain = 0
KWE1 241105Z 17008KT 19/16 A2983 RMK A01 T01850161  RH  086%=      5-min Rain = 0
KWE1 241106Z 17008KT 19/16 A2983 RMK A01 T01850161  RH  085%=      5-min Rain = 0
KWE1 241107Z 17007KT 19/16 A2983 RMK A01 T01850160  RH  085%=      5-min Rain = 0
KWE1 241108Z 17007KT 19/16 A2983 RMK A01 T01860161  RH  086%=      5-min Rain = 0
KWE1 241109Z 17009KT 19/16 A2983 RMK A01 T01850161  RH  086%=      5-min Rain = 0
KWE1 241110Z 18008KT 19/16 A2983 RMK A01 T01850160  RH  085%=      5-min Rain = 0
KWE1 241111Z 17008KT 19/16 A2983 RMK A01 T01850160  RH  085%=      5-min Rain = 0
KWE1 241112Z 17008KT 19/16 A2983 RMK A01 T01860161  RH  085%=      5-min Rain = 0
KWE1 241113Z 17008KT 19/16 A2983 RMK A01 T01850161  RH  085%=      5-min Rain = 0
KWE1 241114Z 17008KT 19/16 A2983 RMK A01 T01850161  RH  085%=      5-min Rain = 0
KWE1 241115Z 17007KT 19/16 A2983 RMK A01 T01860161  RH  086%=      5-min Rain = 0
KWE1 241116Z 17008KT 19/16 A2983 RMK A01 T01850161  RH  086%=      5-min Rain = 0
KWE1 241117Z 17008KT 19/16 A2983 RMK A01 T01850161  RH  085%=      5-min Rain = 0
KWE1 241118Z 16007KT 19/16 A2982 RMK A01 T01860160  RH  085%=      5-min Rain = 0
KWE1 241119Z 17007KT 19/16 A2982 RMK A01 T01860160  RH  085%=      5-min Rain = 0
KWE1 241120Z 16008KT 19/16 A2982 RMK A01 T01860160  RH  085%=      5-min Rain = 0
KWE1 241121Z 16007KT 19/16 A2982 RMK A01 T01860160  RH  085%=      5-min Rain = 0
KWE1 241122Z 15008KT 19/16 A2982 RMK A01 T01860160  RH  085%=      5-min Rain = 0
KWE1 241123Z 15007KT 19/16 A2982 RMK A01 T01860160  RH  085%=      5-min Rain = 0
KWE1 241124Z 15006KT 19/16 A2982 RMK A01 T01860160  RH  085%=      5-min Rain = 0
KWE1 241125Z 14007KT 19/16 A2982 RMK A01 T01860160  RH  085%=      5-min Rain = 0
KWE1 241126Z 15008KT 19/16 A2982 RMK A01 T01860160  RH  085%=      5-min Rain = 0
KWE1 241127Z 15008KT 19/16 A2982 RMK A01 T01870160  RH  085%=      5-min Rain = 0
KWE1 241128Z 15007KT 19/16 A2982 RMK A01 T01870161  RH  085%=      5-min Rain = 0
KWE1 241129Z 14008KT 19/16 A2981 RMK A01 T01870161  RH  085%=      5-min Rain = 0
KWE1 241130Z 14008KT 19/16 A2981 RMK A01 T01880161  RH  084%=      5-min Rain = 0
KWE1 241131Z 15009KT 19/16 A2982 RMK A01 T01880161  RH  084%=      5-min Rain = 0
KWE1 241132Z 15008KT 19/16 A2982 RMK A01 T01880161  RH  084%=      5-min Rain = 0
KWE1 241133Z 14008KT 19/16 A2982 RMK A01 T01880161  RH  084%=      5-min Rain = 0
KWE1 241134Z 15010KT 19/16 A2982 RMK A01 T01880162  RH  084%=      5-min Rain = 0
KWE1 241135Z 14010KT 19/16 A2982 RMK A01 T01880162  RH  085%=      5-min Rain = 0
KWE1 241136Z 14007KT 19/16 A2982 RMK A01 T01890162  RH  085%=      5-min Rain = 0
KWE1 241137Z 15009KT 19/16 A2982 RMK A01 T01890163  RH  085%=      5-min Rain = 0
KWE1 241138Z 14009KT 19/16 A2982 RMK A01 T01890163  RH  085%=      5-min Rain = 0
KWE1 241139Z 14007KT 19/16 A2982 RMK A01 T01890162  RH  085%=      5-min Rain = 0
KWE1 241140Z 14009KT 19/16 A2982 RMK A01 T01890163  RH  085%=      5-min Rain = 0
KWE1 241141Z 14007KT 19/16 A2982 RMK A01 T01890163  RH  085%=      5-min Rain = 0
KWE1 241142Z 14008KT 19/16 A2982 RMK A01 T01880163  RH  085%=      5-min Rain = 0
KWE1 241143Z 14007KT 19/16 A2981 RMK A01 T01880163  RH  085%=      5-min Rain = 0
KWE1 241144Z 13008KT 19/16 A2981 RMK A01 T01880163  RH  085%=      5-min Rain = 0
KWE1 241145Z 14008KT 19/16 A2982 RMK A01 T01880163  RH  085%=      5-min Rain = 0
KWE1 241146Z 14008KT 19/16 A2982 RMK A01 T01880163  RH  086%=      5-min Rain = 0
KWE1 241147Z 14009KT 19/16 A2982 RMK A01 T01880164  RH  086%=      5-min Rain = 0
KWE1 241148Z 14008KT 19/16 A2982 RMK A01 T01880164  RH  086%=      5-min Rain = 0
KWE1 241149Z 13008KT 19/16 A2981 RMK A01 T01880164  RH  086%=      5-min Rain = 0
KWE1 241150Z 14009KT 19/17 A2982 RMK A01 T01880165  RH  086%=      5-min Rain = 0
KWE1 241151Z 15011KT 19/17 A2982 RMK A01 T01880165  RH  087%=      5-min Rain = 0
KWE1 241152Z 15011KT 19/17 A2982 RMK A01 T01880165  RH  087%=      5-min Rain = 0
KWE1 241153Z 15011KT 19/17 A2982 RMK A01 T01880165  RH  087%=      5-min Rain = 0
KWE1 241154Z 14012KT 19/17 A2982 RMK A01 T01880165  RH  087%=      5-min Rain = 0
KWE1 241155Z 15011KT 19/17 A2982 RMK A01 T01880165  RH  087%=      5-min Rain = 0
KWE1 241156Z 14011KT 19/17 A2982 RMK A01 T01880165  RH  086%=      5-min Rain = 0
KWE1 241157Z 14011KT 19/17 A2982 RMK A01 T01880165  RH  086%=      5-min Rain = 0
KWE1 241158Z 15011KT 19/17 A2982 RMK A01 T01880165  RH  086%=      5-min Rain = 0
KWE1 241159Z 14011KT 19/16 A2982 RMK A01 T01870164  RH  087%=      5-min Rain = 0
KWE1 241200Z 15011KT 19/17 A2982 RMK A01 T01870165  RH  087%=      5-min Rain = 0
KWE1 241201Z 15011KT 19/17 A2982 RMK A01 T01880166  RH  087%=      5-min Rain = 0
KWE1 241202Z 14011KT 19/17 A2982 RMK A01 T01870165  RH  087%=      5-min Rain = 0
KWE1 241203Z 15010KT 19/17 A2982 RMK A01 T01880166  RH  087%=      5-min Rain = 0
KWE1 241204Z 15012KT 19/17 A2982 RMK A01 T01880166  RH  087%=      5-min Rain = 0
KWE1 241205Z 14011KT 19/17 A2982 RMK A01 T01880166  RH  087%=      5-min Rain = 0
KWE1 241206Z 14010KT 19/17 A2982 RMK A01 T01880166  RH  087%=      5-min Rain = 0
KWE1 241207Z 15010KT 19/17 A2982 RMK A01 T01880166  RH  087%=      5-min Rain = 0
KWE1 241208Z 14010KT 19/17 A2982 RMK A01 T01880166  RH  087%=      5-min Rain = 0
KWE1 241209Z 15010KT 19/17 A2982 RMK A01 T01880167  RH  087%=      5-min Rain = 0
KWE1 241210Z 14010KT 19/17 A2982 RMK A01 T01880167  RH  088%=      5-min Rain = 0
KWE1 241211Z 14010KT 19/17 A2982 RMK A01 T01880168  RH  088%=      5-min Rain = 0
KWE1 241212Z 15009KT 19/17 A2982 RMK A01 T01880167  RH  088%=      5-min Rain = 0
KWE1 241213Z 14010KT 19/17 A2982 RMK A01 T01880168  RH  088%=      5-min Rain = 0
KWE1 241214Z 15010KT 19/17 A2982 RMK A01 T01880168  RH  088%=      5-min Rain = 0
KWE1 241215Z 14011KT 19/17 A2982 RMK A01 T01880168  RH  088%=      5-min Rain = 0
KWE1 241216Z 15010KT 19/17 A2982 RMK A01 T01880168  RH  088%=      5-min Rain = 0
KWE1 241217Z 15010KT 19/17 A2982 RMK A01 T01880168  RH  088%=      5-min Rain = 0
KWE1 241218Z 15012KT 19/17 A2982 RMK A01 T01880168  RH  088%=      5-min Rain = 0
KWE1 241219Z 15010KT 19/17 A2982 RMK A01 T01890169  RH  088%=      5-min Rain = 0
KWE1 241220Z 15010KT 19/17 A2983 RMK A01 T01890169  RH  088%=      5-min Rain = 0
KWE1 241221Z 15012KT 19/17 A2983 RMK A01 T01890169  RH  088%=      5-min Rain = 0
KWE1 241222Z 15012KT 19/17 A2983 RMK A01 T01900169  RH  088%=      5-min Rain = 0
KWE1 241223Z 15011KT 19/17 A2983 RMK A01 T01900170  RH  088%=      5-min Rain = 0
KWE1 241224Z 15010KT 19/17 A2983 RMK A01 T01910170  RH  088%=      5-min Rain = 0
KWE1 241225Z 15011KT 19/17 A2983 RMK A01 T01920171  RH  087%=      5-min Rain = 0
KWE1 241226Z 15013KT 19/17 A2983 RMK A01 T01920170  RH  087%=      5-min Rain = 0
KWE1 241227Z 14010KT 19/17 A2983 RMK A01 T01920171  RH  087%=      5-min Rain = 0
KWE1 241228Z 15011KT 19/17 A2983 RMK A01 T01920171  RH  087%=      5-min Rain = 0
KWE1 241229Z 14012KT 19/17 A2983 RMK A01 T01930171  RH  087%=      5-min Rain = 0
KWE1 241230Z 15012KT 19/17 A2983 RMK A01 T01930171  RH  087%=      5-min Rain = 0
KWE1 241231Z 15011KT 19/17 A2983 RMK A01 T01930172  RH  087%=      5-min Rain = 0
KWE1 241232Z 14010KT 19/17 A2983 RMK A01 T01940173  RH  088%=      5-min Rain = 0
KWE1 241233Z 15011KT 19/17 A2983 RMK A01 T01940173  RH  087%=      5-min Rain = 0
KWE1 241234Z 14010KT 19/17 A2983 RMK A01 T01940172  RH  087%=      5-min Rain = 0
KWE1 241235Z 15010KT 20/17 A2983 RMK A01 T01950173  RH  087%=      5-min Rain = 0
KWE1 241236Z 15010KT 20/17 A2983 RMK A01 T01950173  RH  087%=      5-min Rain = 0
KWE1 241237Z 15012KT 20/17 A2983 RMK A01 T01950173  RH  087%=      5-min Rain = 0
KWE1 241238Z 15010KT 20/17 A2983 RMK A01 T01950173  RH  087%=      5-min Rain = 0
KWE1 241239Z 15010KT 20/17 A2983 RMK A01 T01960174  RH  087%=      5-min Rain = 0
KWE1 241240Z 15009KT 20/17 A2983 RMK A01 T01960174  RH  087%=      5-min Rain = 0
KWE1 241241Z 15010KT 20/18 A2984 RMK A01 T01970175  RH  087%=      5-min Rain = 0
KWE1 241242Z 15009KT 20/17 A2984 RMK A01 T01970174  RH  087%=      5-min Rain = 0
KWE1 241243Z 15009KT 20/18 A2984 RMK A01 T01970175  RH  087%=      5-min Rain = 0
KWE1 241244Z 15008KT 20/18 A2984 RMK A01 T01980176  RH  087%=      5-min Rain = 0
KWE1 241245Z 15009KT 20/18 A2984 RMK A01 T01980176  RH  087%=      5-min Rain = 0
KWE1 241246Z 16012KT 20/18 A2984 RMK A01 T01990176  RH  087%=      5-min Rain = 0
KWE1 241247Z 15011KT 20/18 A2984 RMK A01 T01990175  RH  086%=      5-min Rain = 0
KWE1 241248Z 15009KT 20/18 A2984 RMK A01 T01990177  RH  087%=      5-min Rain = 0
KWE1 241249Z 16009KT 20/18 A2984 RMK A01 T02000177  RH  087%=      5-min Rain = 0
KWE1 241250Z 15009KT 20/18 A2984 RMK A01 T02000176  RH  086%=      5-min Rain = 0
KWE1 241251Z 16011KT 20/18 A2984 RMK A01 T02000177  RH  086%=      5-min Rain = 0
KWE1 241252Z 16012KT 20/18 A2984 RMK A01 T02000176  RH  086%=      5-min Rain = 0
KWE1 241253Z 16011KT 20/18 A2984 RMK A01 T02000176  RH  086%=      5-min Rain = 0
KWE1 241254Z 16011KT 20/18 A2984 RMK A01 T02010177  RH  087%=      5-min Rain = 0
KWE1 241255Z 16011KT 20/18 A2984 RMK A01 T02010178  RH  087%=      5-min Rain = 0
KWE1 241256Z 16012KT 20/18 A2984 RMK A01 T02010177  RH  086%=      5-min Rain = 0
KWE1 241257Z 16013KT 20/18 A2984 RMK A01 T02010177  RH  086%=      5-min Rain = 0
KWE1 241258Z 15015KT 20/18 A2984 RMK A01 T02010177  RH  086%=      5-min Rain = 0
KWE1 241259Z 15015KT 20/18 A2985 RMK A01 T02020178  RH  086%=      5-min Rain = 0
KWE1 241300Z 16013KT 20/18 A2985 RMK A01 T02010177  RH  086%=      5-min Rain = 0
KWE1 241301Z 16011KT 20/18 A2984 RMK A01 T02020178  RH  086%=      5-min Rain = 0
KWE1 241302Z 16013KT 20/18 A2984 RMK A01 T02010178  RH  086%=      5-min Rain = 0
KWE1 241303Z 17013KT 20/18 A2984 RMK A01 T02020178  RH  086%=      5-min Rain = 0
KWE1 241304Z 16013KT 20/18 A2984 RMK A01 T02020178  RH  086%=      5-min Rain = 0
KWE1 241305Z 17012KT 20/18 A2984 RMK A01 T02020178  RH  086%=      5-min Rain = 0
KWE1 241306Z 16014KT 20/18 A2984 RMK A01 T02020178  RH  086%=      5-min Rain = 0
KWE1 241307Z 16014KT 20/18 A2984 RMK A01 T02010178  RH  087%=      5-min Rain = 0
KWE1 241308Z 16013KT 20/18 A2984 RMK A01 T02010178  RH  087%=      5-min Rain = 0
KWE1 241309Z 16012KT 20/18 A2984 RMK A01 T02010179  RH  087%=      5-min Rain = 0
KWE1 241310Z 16013KT 20/18 A2984 RMK A01 T02010179  RH  087%=      5-min Rain = 0
KWE1 241311Z 17010KT 20/18 A2984 RMK A01 T02000178  RH  087%=      5-min Rain = 0
KWE1 241312Z 17012KT 20/18 A2984 RMK A01 T02010178  RH  087%=      5-min Rain = 0
KWE1 241313Z 17013G18KT 20/18 A2984 RMK A01 T02000178  RH  087%=      5-min Rain = 0
KWE1 241314Z 17015KT 20/18 A2984 RMK A01 T02010178  RH  087%=      5-min Rain = 0
KWE1 241315Z 17013KT 20/18 A2985 RMK A01 T02010179  RH  087%=      5-min Rain = 0
KWE1 241316Z 16012KT 20/18 A2985 RMK A01 T02020179  RH  087%=      5-min Rain = 0
KWE1 241317Z 17015KT 20/18 A2985 RMK A01 T02020179  RH  086%=      5-min Rain = 0
KWE1 241318Z 17015KT 20/18 A2985 RMK A01 T02020178  RH  086%=      5-min Rain = 0
KWE1 241319Z 17014KT 20/18 A2985 RMK A01 T02020178  RH  086%=      5-min Rain = 0
KWE1 241320Z 17013G18KT 20/18 A2985 RMK A01 T02020179  RH  086%=      5-min Rain = 0
KWE1 241321Z 17014KT 20/18 A2985 RMK A01 T02020179  RH  086%=      5-min Rain = 0
KWE1 241322Z 17014KT 20/18 A2985 RMK A01 T02030179  RH  086%=      5-min Rain = 0
KWE1 241323Z 17013KT 20/18 A2985 RMK A01 T02030180  RH  086%=      5-min Rain = 0
KWE1 241324Z 17012KT 20/18 A2985 RMK A01 T02030179  RH  086%=      5-min Rain = 0
KWE1 241325Z 17014KT 20/18 A2985 RMK A01 T02030180  RH  086%=      5-min Rain = 0
KWE1 241326Z 17014KT 20/18 A2985 RMK A01 T02040179  RH  086%=      5-min Rain = 0
KWE1 241327Z 17013KT 20/18 A2985 RMK A01 T02030179  RH  086%=      5-min Rain = 0
KWE1 241328Z 17015KT 20/18 A2985 RMK A01 T02030180  RH  086%=      5-min Rain = 0
KWE1 241329Z 18013KT 20/18 A2985 RMK A01 T02030179  RH  086%=      5-min Rain = 0
KWE1 241330Z 18013KT 20/18 A2985 RMK A01 T02030180  RH  086%=      5-min Rain = 0
KWE1 241331Z 17015KT 20/18 A2985 RMK A01 T02030180  RH  086%=      5-min Rain = 0
KWE1 241332Z 17013KT 20/18 A2985 RMK A01 T02030179  RH  086%=      5-min Rain = 0
KWE1 241333Z 17014KT 20/18 A2985 RMK A01 T02030180  RH  086%=      5-min Rain = 0
KWE1 241334Z 17014KT 20/18 A2985 RMK A01 T02030179  RH  086%=      5-min Rain = 0
KWE1 241335Z 18016KT 20/18 A2985 RMK A01 T02020178  RH  086%=      5-min Rain = 0
KWE1 241336Z 18013KT 20/18 A2985 RMK A01 T02020178  RH  086%=      5-min Rain = 0
KWE1 241337Z 18013KT 20/18 A2985 RMK A01 T02010179  RH  087%=      5-min Rain = 0
KWE1 241338Z 17012KT 20/18 A2985 RMK A01 T02010179  RH  087%=      5-min Rain = 0
KWE1 241339Z 18014KT 20/18 A2985 RMK A01 T02010179  RH  087%=      5-min Rain = 0
KWE1 241340Z 17013KT 20/18 A2985 RMK A01 T02020180  RH  087%=      5-min Rain = 0
KWE1 241341Z 17012KT 20/18 A2985 RMK A01 T02020179  RH  086%=      5-min Rain = 0
KWE1 241342Z 17012KT 20/18 A2985 RMK A01 T02030180  RH  087%=      5-min Rain = 0
KWE1 241343Z 17013KT 20/18 A2985 RMK A01 T02030180  RH  087%=      5-min Rain = 0
KWE1 241344Z 17012KT 20/18 A2985 RMK A01 T02030181  RH  087%=      5-min Rain = 0
KWE1 241345Z 18012KT 20/18 A2985 RMK A01 T02030181  RH  087%=      5-min Rain = 0
KWE1 241346Z 17012KT 20/18 A2985 RMK A01 T02030180  RH  087%=      5-min Rain = 0
KWE1 241347Z 17011KT 20/18 A2984 RMK A01 T02040181  RH  087%=      5-min Rain = 0
KWE1 241348Z 17013KT 20/18 A2984 RMK A01 T02040181  RH  087%=      5-min Rain = 0
KWE1 241349Z 17013KT 20/18 A2984 RMK A01 T02040180  RH  086%=      5-min Rain = 0
KWE1 241350Z 17013KT 20/18 A2984 RMK A01 T02040181  RH  087%=      5-min Rain = 0
KWE1 241351Z 17013KT 21/18 A2984 RMK A01 T02050181  RH  086%=      5-min Rain = 0
KWE1 241352Z 18012KT 21/18 A2984 RMK A01 T02060181  RH  086%=      5-min Rain = 0
KWE1 241353Z 18011KT 21/18 A2984 RMK A01 T02060181  RH  086%=      5-min Rain = 0
KWE1 241354Z 18012KT 21/18 A2984 RMK A01 T02070182  RH  086%=      5-min Rain = 0
KWE1 241355Z 17015KT 21/18 A2984 RMK A01 T02070180  RH  085%=      5-min Rain = 0
KWE1 241356Z 18013KT 21/18 A2984 RMK A01 T02080181  RH  084%=      5-min Rain = 0
KWE1 241357Z 18014KT 21/18 A2984 RMK A01 T02090181  RH  084%=      5-min Rain = 0
KWE1 241358Z 18014KT 21/18 A2984 RMK A01 T02100181  RH  083%=      5-min Rain = 0
KWE1 241359Z 18013KT 21/18 A2984 RMK A01 T02110181  RH  083%=      5-min Rain = 0
KWE1 241400Z 17013KT 21/18 A2984 RMK A01 T02110182  RH  083%=      5-min Rain = 0
KWE1 241401Z 18014KT 21/18 A2984 RMK A01 T02120182  RH  083%=      5-min Rain = 0
KWE1 241402Z 18015KT 21/18 A2984 RMK A01 T02120180  RH  082%=      5-min Rain = 0
KWE1 241403Z 18016KT 21/18 A2984 RMK A01 T02120180  RH  082%=      5-min Rain = 0
KWE1 241404Z 18015KT 21/18 A2984 RMK A01 T02120179  RH  081%=      5-min Rain = 0
KWE1 241405Z 18014KT 21/18 A2984 RMK A01 T02130180  RH  081%=      5-min Rain = 0
KWE1 241406Z 18013KT 21/18 A2984 RMK A01 T02140181  RH  082%=      5-min Rain = 0
KWE1 241407Z 18014KT 22/18 A2984 RMK A01 T02150182  RH  082%=      5-min Rain = 0
KWE1 241408Z 18013KT 22/18 A2984 RMK A01 T02160183  RH  081%=      5-min Rain = 0
KWE1 241409Z 19014KT 22/18 A2984 RMK A01 T02180183  RH  081%=      5-min Rain = 0
KWE1 241410Z 18012KT 22/18 A2984 RMK A01 T02190183  RH  080%=      5-min Rain = 0
KWE1 241411Z 18012KT 22/18 A2984 RMK A01 T02190184  RH  080%=      5-min Rain = 0
KWE1 241412Z 18012KT 22/18 A2984 RMK A01 T02210184  RH  079%=      5-min Rain = 0
KWE1 241413Z 18013KT 22/19 A2984 RMK A01 T02220185  RH  079%=      5-min Rain = 0
KWE1 241414Z 17015KT 22/18 A2984 RMK A01 T02240183  RH  078%=      5-min Rain = 0
KWE1 241415Z 17015KT 23/18 A2984 RMK A01 T02250183  RH  077%=      5-min Rain = 0
KWE1 241416Z 18014KT 23/18 A2984 RMK A01 T02260183  RH  077%=      5-min Rain = 0
KWE1 241417Z 19014KT 23/18 A2984 RMK A01 T02270184  RH  077%=      5-min Rain = 0
KWE1 241418Z 19014KT 23/18 A2984 RMK A01 T02270184  RH  077%=      5-min Rain = 0
KWE1 241419Z 18014KT 23/18 A2984 RMK A01 T02280183  RH  076%=      5-min Rain = 0
KWE1 241420Z 18014KT 23/18 A2984 RMK A01 T02280182  RH  075%=      5-min Rain = 0
KWE1 241421Z 18015KT 23/18 A2984 RMK A01 T02290183  RH  075%=      5-min Rain = 0
KWE1 241422Z 19012KT 23/18 A2984 RMK A01 T02290184  RH  076%=      5-min Rain = 0
KWE1 241423Z 19011KT 23/19 A2984 RMK A01 T02300186  RH  076%=      5-min Rain = 0
KWE1 241424Z 18013KT 23/19 A2984 RMK A01 T02300187  RH  077%=      5-min Rain = 0
KWE1 241425Z 18014KT 23/18 A2984 RMK A01 T02310184  RH  075%=      5-min Rain = 0
KWE1 241426Z 18015KT 23/18 A2984 RMK A01 T02310184  RH  075%=      5-min Rain = 0
KWE1 241427Z 19012KT 23/18 A2985 RMK A01 T02320184  RH  074%=      5-min Rain = 0
KWE1 241428Z 18013KT 23/19 A2985 RMK A01 T02320185  RH  075%=      5-min Rain = 0
KWE1 241429Z 19012KT 23/19 A2985 RMK A01 T02320186  RH  075%=      5-min Rain = 0
KWE1 241430Z 19015KT 23/19 A2985 RMK A01 T02320186  RH  075%=      5-min Rain = 0
KWE1 241431Z 19013KT 23/18 A2985 RMK A01 T02330183  RH  074%=      5-min Rain = 0
KWE1 241432Z 19013KT 23/18 A2985 RMK A01 T02330184  RH  074%=      5-min Rain = 0
KWE1 241433Z 18012KT 23/18 A2985 RMK A01 T02330184  RH  074%=      5-min Rain = 0
KWE1 241434Z 19014KT 23/18 A2985 RMK A01 T02340184  RH  073%=      5-min Rain = 0
KWE1 241435Z 18013KT 24/19 A2985 RMK A01 T02350185  RH  073%=      5-min Rain = 0
KWE1 241436Z 18012KT 24/18 A2985 RMK A01 T02360184  RH  073%=      5-min Rain = 0
KWE1 241437Z 18012KT 24/19 A2985 RMK A01 T02370185  RH  073%=      5-min Rain = 0
KWE1 241438Z 18014KT 24/18 A2985 RMK A01 T02370182  RH  071%=      5-min Rain = 0
KWE1 241439Z 18014KT 24/18 A2985 RMK A01 T02380181  RH  071%=      5-min Rain = 0
KWE1 241440Z 19016KT 24/18 A2985 RMK A01 T02380180  RH  070%=      5-min Rain = 0
KWE1 241441Z 18017KT 24/18 A2985 RMK A01 T02380179  RH  070%=      5-min Rain = 0
KWE1 241442Z 19015KT 24/18 A2985 RMK A01 T02380179  RH  070%=      5-min Rain = 0
KWE1 241443Z 18014KT 24/18 A2985 RMK A01 T02370179  RH  070%=      5-min Rain = 0
KWE1 241444Z 18015KT 24/18 A2985 RMK A01 T02380180  RH  070%=      5-min Rain = 0
KWE1 241445Z 18015KT 24/18 A2985 RMK A01 T02380181  RH  070%=      5-min Rain = 0
KWE1 241446Z 18015KT 24/18 A2985 RMK A01 T02390180  RH  069%=      5-min Rain = 0
KWE1 241447Z 18016KT 24/18 A2985 RMK A01 T02400181  RH  070%=      5-min Rain = 0
KWE1 241448Z 19016KT 24/18 A2984 RMK A01 T02400176  RH  067%=      5-min Rain = 0
KWE1 241449Z 19019KT 24/18 A2984 RMK A01 T02400175  RH  067%=      5-min Rain = 0
KWE1 241450Z 18016KT 24/18 A2984 RMK A01 T02410175  RH  067%=      5-min Rain = 0
KWE1 241451Z 19016KT 24/18 A2984 RMK A01 T02410176  RH  067%=      5-min Rain = 0
KWE1 241452Z 19015KT 24/18 A2984 RMK A01 T02410176  RH  067%=      5-min Rain = 0
KWE1 241453Z 19013KT 24/18 A2984 RMK A01 T02420180  RH  068%=      5-min Rain = 0
KWE1 241454Z 18013KT 24/18 A2984 RMK A01 T02430182  RH  069%=      5-min Rain = 0
KWE1 241455Z 19014KT 24/18 A2984 RMK A01 T02440180  RH  068%=      5-min Rain = 0
KWE1 241456Z 19014KT 24/18 A2984 RMK A01 T02440181  RH  068%=      5-min Rain = 0
KWE1 241457Z 19017KT 25/18 A2984 RMK A01 T02450178  RH  066%=      5-min Rain = 0
KWE1 241458Z 19018KT 25/18 A2984 RMK A01 T02460180  RH  067%=      5-min Rain = 0
KWE1 241459Z 18016KT 25/18 A2984 RMK A01 T02460178  RH  066%=      5-min Rain = 0
KWE1 241500Z 18017KT 25/18 A2984 RMK A01 T02460176  RH  065%=      5-min Rain = 0
KWE1 241501Z 18015KT 25/17 A2984 RMK A01 T02470173  RH  064%=      5-min Rain = 0
KWE1 241502Z 19013KT 25/18 A2984 RMK A01 T02470178  RH  065%=      5-min Rain = 0
KWE1 241503Z 18013G18KT 25/18 A2984 RMK A01 T02480180  RH  066%=      5-min Rain = 0
KWE1 241504Z 19015KT 25/17 A2984 RMK A01 T02490172  RH  062%=      5-min Rain = 0
KWE1 241505Z 19013KT 25/17 A2984 RMK A01 T02490174  RH  063%=      5-min Rain = 0
KWE1 241506Z 18013KT 25/18 A2984 RMK A01 T02500178  RH  064%=      5-min Rain = 0
KWE1 241507Z 20013KT 25/18 A2984 RMK A01 T02500177  RH  064%=      5-min Rain = 0
KWE1 241508Z 19014KT 25/18 A2984 RMK A01 T02520180  RH  064%=      5-min Rain = 0
KWE1 241509Z 18015KT 25/17 A2984 RMK A01 T02530174  RH  061%=      5-min Rain = 0
KWE1 241510Z 19015KT 25/18 A2984 RMK A01 T02530177  RH  063%=      5-min Rain = 0
KWE1 241511Z 18016KT 25/18 A2984 RMK A01 T02540175  RH  062%=      5-min Rain = 0
KWE1 241512Z 19017KT 25/18 A2984 RMK A01 T02540175  RH  061%=      5-min Rain = 0
KWE1 241513Z 19017KT 25/17 A2984 RMK A01 T02540174  RH  062%=      5-min Rain = 0
KWE1 241514Z 19017KT 25/17 A2984 RMK A01 T02540172  RH  061%=      5-min Rain = 0
KWE1 241515Z 19017KT 25/17 A2984 RMK A01 T02540169  RH  059%=      5-min Rain = 0
KWE1 241516Z 19014KT 25/17 A2984 RMK A01 T02540174  RH  061%=      5-min Rain = 0
KWE1 241517Z 19013KT 25/18 A2984 RMK A01 T02540179  RH  063%=      5-min Rain = 0
KWE1 241518Z 19015KT 26/18 A2984 RMK A01 T02560175  RH  061%=      5-min Rain = 0
KWE1 241519Z 19014KT 26/17 A2984 RMK A01 T02560174  RH  060%=      5-min Rain = 0
KWE1 241520Z 19015KT 26/17 A2984 RMK A01 T02560174  RH  060%=      5-min Rain = 0
KWE1 241521Z 18017KT 26/17 A2984 RMK A01 T02560173  RH  060%=      5-min Rain = 0
KWE1 241522Z 18016KT 26/17 A2984 RMK A01 T02570172  RH  060%=      5-min Rain = 0
KWE1 241523Z 19018KT 26/17 A2983 RMK A01 T02570171  RH  059%=      5-min Rain = 0
KWE1 241524Z 18020KT 26/17 A2983 RMK A01 T02570169  RH  058%=      5-min Rain = 0
KWE1 241525Z 19019KT 26/17 A2983 RMK A01 T02570166  RH  057%=      5-min Rain = 0
KWE1 241526Z 19015KT 26/17 A2983 RMK A01 T02570169  RH  058%=      5-min Rain = 0
KWE1 241527Z 19014KT 26/18 A2984 RMK A01 T02580181  RH  063%=      5-min Rain = 0
KWE1 241528Z 19018KT 26/18 A2983 RMK A01 T02590175  RH  060%=      5-min Rain = 0
KWE1 241529Z 19018KT 26/17 A2983 RMK A01 T02590171  RH  058%=      5-min Rain = 0
KWE1 241530Z 19015KT 26/17 A2983 RMK A01 T02590172  RH  059%=      5-min Rain = 0
KWE1 241531Z 19018G23KT 26/17 A2983 RMK A01 T02590171  RH  058%=      5-min Rain = 0
KWE1 241532Z 19019KT 26/17 A2983 RMK A01 T02600172  RH  058%=      5-min Rain = 0
KWE1 241533Z 20017G22KT 26/17 A2983 RMK A01 T02590171  RH  058%=      5-min Rain = 0
KWE1 241534Z 19020KT 26/17 A2983 RMK A01 T02600169  RH  057%=      5-min Rain = 0
KWE1 241535Z 19021KT 26/17 A2983 RMK A01 T02600170  RH  058%=      5-min Rain = 0
KWE1 241536Z 19019KT 26/17 A2983 RMK A01 T02600171  RH  058%=      5-min Rain = 0
KWE1 241537Z 19020KT 26/17 A2983 RMK A01 T02600170  RH  058%=      5-min Rain = 0
KWE1 241538Z 20019G24KT 26/17 A2983 RMK A01 T02590165  RH  056%=      5-min Rain = 0
KWE1 241539Z 19016G21KT 26/17 A2983 RMK A01 T02600169  RH  058%=      5-min Rain = 0
KWE1 241540Z 19018KT 26/18 A2983 RMK A01 T02600175  RH  059%=      5-min Rain = 0
KWE1 241541Z 19019KT 26/17 A2983 RMK A01 T02600170  RH  057%=      5-min Rain = 0
KWE1 241542Z 19021KT 26/17 A2983 RMK A01 T02610167  RH  056%=      5-min Rain = 0
KWE1 241543Z 19022KT 26/17 A2983 RMK A01 T02610165  RH  056%=      5-min Rain = 0
KWE1 241544Z 19021KT 26/17 A2983 RMK A01 T02600166  RH  056%=      5-min Rain = 0
KWE1 241545Z 19021KT 26/17 A2983 RMK A01 T02600166  RH  056%=      5-min Rain = 0
KWE1 241546Z 19020KT 26/17 A2983 RMK A01 T02600168  RH  057%=      5-min Rain = 0
KWE1 241547Z 18020KT 26/17 A2983 RMK A01 T02600170  RH  058%=      5-min Rain = 0
KWE1 241548Z 19019KT 26/17 A2983 RMK A01 T02610169  RH  057%=      5-min Rain = 0
KWE1 241549Z 19017KT 26/17 A2983 RMK A01 T02610171  RH  058%=      5-min Rain = 0
KWE1 241550Z 19017KT 26/17 A2983 RMK A01 T02610172  RH  058%=      5-min Rain = 0
KWE1 241551Z 19019KT 26/17 A2983 RMK A01 T02620172  RH  057%=      5-min Rain = 0
KWE1 241552Z 19019KT 26/17 A2983 RMK A01 T02630174  RH  058%=      5-min Rain = 0
KWE1 241553Z 19018KT 26/17 A2983 RMK A01 T02630169  RH  056%=      5-min Rain = 0
KWE1 241554Z 19015KT 26/17 A2983 RMK A01 T02630173  RH  058%=      5-min Rain = 0
KWE1 241555Z 19016KT 26/17 A2983 RMK A01 T02640172  RH  057%=      5-min Rain = 0
KWE1 241556Z 19019KT 27/18 A2983 RMK A01 T02650175  RH  058%=      5-min Rain = 0
KWE1 241557Z 19018KT 27/17 A2983 RMK A01 T02650174  RH  057%=      5-min Rain = 0
KWE1 241558Z 19020KT 27/17 A2983 RMK A01 T02650170  RH  056%=      5-min Rain = 0
KWE1 241559Z 19018G24KT 27/17 A2983 RMK A01 T02650173  RH  057%=      5-min Rain = 0
KWE1 241600Z 18017KT 27/17 A2983 RMK A01 T02650168  RH  055%=      5-min Rain = 0
KWE1 241601Z 19019KT 27/17 A2983 RMK A01 T02650173  RH  057%=      5-min Rain = 0
KWE1 241602Z 20018KT 27/17 A2983 RMK A01 T02660173  RH  057%=      5-min Rain = 0
KWE1 241603Z 20020KT 27/17 A2983 RMK A01 T02660167  RH  055%=      5-min Rain = 0
KWE1 241604Z 20022KT 27/17 A2983 RMK A01 T02670168  RH  055%=      5-min Rain = 0
KWE1 241605Z 20022G27KT 27/17 A2983 RMK A01 T02660168  RH  055%=      5-min Rain = 0
KWE1 241606Z 20022KT 27/17 A2983 RMK A01 T02650168  RH  055%=      5-min Rain = 0
KWE1 241607Z 20019KT 27/17 A2983 RMK A01 T02660168  RH  055%=      5-min Rain = 0
KWE1 241608Z 19020G25KT 27/17 A2983 RMK A01 T02650169  RH  055%=      5-min Rain = 0
KWE1 241609Z 19022KT 27/17 A2983 RMK A01 T02660170  RH  056%=      5-min Rain = 0
KWE1 241610Z 20020KT 27/17 A2983 RMK A01 T02660169  RH  055%=      5-min Rain = 0
KWE1 241611Z 20020G25KT 27/17 A2983 RMK A01 T02660170  RH  056%=      5-min Rain = 0
KWE1 241612Z 19021KT 27/17 A2983 RMK A01 T02670173  RH  056%=      5-min Rain = 0
KWE1 241613Z 19021KT 27/17 A2983 RMK A01 T02670169  RH  055%=      5-min Rain = 0
KWE1 241614Z 20019G24KT 27/17 A2983 RMK A01 T02660171  RH  056%=      5-min Rain = 0
KWE1 241615Z 19020KT 27/17 A2983 RMK A01 T02660171  RH  056%=      5-min Rain = 0
KWE1 241616Z 20020KT 27/17 A2983 RMK A01 T02670173  RH  056%=      5-min Rain = 0
KWE1 241617Z 19018KT 27/17 A2983 RMK A01 T02670172  RH  056%=      5-min Rain = 0
KWE1 241618Z 19019KT 27/18 A2983 RMK A01 T02670176  RH  058%=      5-min Rain = 0
KWE1 241619Z 19018KT 27/18 A2983 RMK A01 T02670175  RH  057%=      5-min Rain = 0
KWE1 241620Z 18019KT 27/18 A2983 RMK A01 T02680175  RH  057%=      5-min Rain = 0
KWE1 241621Z 18020KT 27/18 A2983 RMK A01 T02690178  RH  057%=      5-min Rain = 0
KWE1 241622Z 18019G24KT 27/17 A2983 RMK A01 T02700173  RH  056%=      5-min Rain = 0
KWE1 241623Z 18017KT 27/18 A2983 RMK A01 T02690179  RH  058%=      5-min Rain = 0
KWE1 241624Z 19018KT 27/18 A2983 RMK A01 T02700180  RH  058%=      5-min Rain = 0
KWE1 241625Z 19019KT 27/18 A2982 RMK A01 T02700175  RH  056%=      5-min Rain = 0
KWE1 241626Z 18018KT 27/18 A2982 RMK A01 T02700179  RH  057%=      5-min Rain = 0
KWE1 241627Z 17018KT 27/18 A2982 RMK A01 T02700178  RH  057%=      5-min Rain = 0
KWE1 241628Z 19018KT 27/18 A2982 RMK A01 T02720178  RH  056%=      5-min Rain = 0
KWE1 241629Z 19016KT 27/19 A2982 RMK A01 T02720186  RH  059%=      5-min Rain = 0
KWE1 241630Z 20017KT 27/18 A2982 RMK A01 T02740181  RH  057%=      5-min Rain = 0
KWE1 241631Z 19021KT 27/18 A2982 RMK A01 T02740178  RH  056%=      5-min Rain = 0
KWE1 241632Z 19020G25KT 27/18 A2982 RMK A01 T02730178  RH  056%=      5-min Rain = 0
KWE1 241633Z 19020KT 27/18 A2982 RMK A01 T02720180  RH  057%=      5-min Rain = 0
KWE1 241634Z 19023KT 27/18 A2982 RMK A01 T02720177  RH  056%=      5-min Rain = 0
KWE1 241635Z 18020KT 27/18 A2982 RMK A01 T02720180  RH  057%=      5-min Rain = 0
KWE1 241636Z 18018G23KT 27/18 A2982 RMK A01 T02730182  RH  058%=      5-min Rain = 0
KWE1 241637Z 18017KT 27/18 A2982 RMK A01 T02740177  RH  055%=      5-min Rain = 0
KWE1 241638Z 19016G24KT 27/18 A2982 RMK A01 T02740182  RH  057%=      5-min Rain = 0
KWE1 241639Z 19023KT 28/18 A2982 RMK A01 T02750180  RH  056%=      5-min Rain = 0
KWE1 241640Z 19021KT 27/18 A2982 RMK A01 T02740178  RH  056%=      5-min Rain = 0
KWE1 241641Z 18020KT 27/18 A2982 RMK A01 T02730178  RH  056%=      5-min Rain = 0
KWE1 241642Z 18019KT 27/18 A2982 RMK A01 T02730177  RH  056%=      5-min Rain = 0
KWE1 241643Z 19020KT 27/18 A2982 RMK A01 T02730181  RH  057%=      5-min Rain = 0
KWE1 241644Z 19022KT 27/18 A2982 RMK A01 T02740179  RH  056%=      5-min Rain = 0
KWE1 241645Z 19021KT 27/18 A2982 RMK A01 T02740179  RH  056%=      5-min Rain = 0
KWE1 241646Z 19017KT 27/18 A2982 RMK A01 T02730181  RH  057%=      5-min Rain = 0
KWE1 241647Z 19019KT 27/18 A2982 RMK A01 T02730182  RH  057%=      5-min Rain = 0
KWE1 241648Z 19020KT 27/18 A2982 RMK A01 T02740183  RH  058%=      5-min Rain = 0
KWE1 241649Z 19017KT 27/18 A2982 RMK A01 T02740183  RH  058%=      5-min Rain = 0
KWE1 241650Z 19018KT 28/19 A2982 RMK A01 T02750185  RH  058%=      5-min Rain = 0
KWE1 241651Z 18020KT 28/18 A2982 RMK A01 T02760183  RH  057%=      5-min Rain = 0
KWE1 241652Z 18018KT 28/18 A2982 RMK A01 T02770183  RH  056%=      5-min Rain = 0
KWE1 241653Z 18019KT 28/18 A2982 RMK A01 T02780180  RH  055%=      5-min Rain = 0
KWE1 241654Z 18019G26KT 28/18 A2982 RMK A01 T02770177  RH  055%=      5-min Rain = 0
KWE1 241655Z 19020KT 28/18 A2982 RMK A01 T02760179  RH  055%=      5-min Rain = 0
KWE1 241656Z 19022KT 28/18 A2982 RMK A01 T02760180  RH  056%=      5-min Rain = 0
KWE1 241657Z 19020KT 28/18 A2982 RMK A01 T02760180  RH  056%=      5-min Rain = 0
KWE1 241658Z 19020KT 28/18 A2982 RMK A01 T02760181  RH  056%=      5-min Rain = 0
KWE1 241659Z 19020KT 28/18 A2982 RMK A01 T02760181  RH  056%=      5-min Rain = 0
KWE1 241700Z 19019KT 28/18 A2982 RMK A01 T02770181  RH  056%=      5-min Rain = 0
KWE1 241701Z 19021G27KT 28/18 A2982 RMK A01 T02770180  RH  056%=      5-min Rain = 0
KWE1 241702Z 19022G28KT 28/18 A2982 RMK A01 T02770177  RH  054%=      5-min Rain = 0
KWE1 241703Z 18021G28KT 28/18 A2982 RMK A01 T02780182  RH  056%=      5-min Rain = 0
KWE1 241704Z 19023KT 28/18 A2982 RMK A01 T02790175  RH  053%=      5-min Rain = 0
KWE1 241705Z 18022KT 28/18 A2982 RMK A01 T02790177  RH  054%=      5-min Rain = 0
KWE1 241706Z 19023KT 28/18 A2982 RMK A01 T02790175  RH  053%=      5-min Rain = 0
KWE1 241707Z 19024KT 28/18 A2982 RMK A01 T02780176  RH  054%=      5-min Rain = 0
KWE1 241708Z 19021KT 28/18 A2982 RMK A01 T02780176  RH  054%=      5-min Rain = 0
KWE1 241709Z 19018KT 28/18 A2982 RMK A01 T02780178  RH  054%=      5-min Rain = 0
KWE1 241710Z 18020G26KT 28/18 A2982 RMK A01 T02790180  RH  055%=      5-min Rain = 0
KWE1 241711Z 19019KT 28/18 A2982 RMK A01 T02790178  RH  054%=      5-min Rain = 0
KWE1 241712Z 18020KT 28/18 A2982 RMK A01 T02800177  RH  053%=      5-min Rain = 0
KWE1 241713Z 18019KT 28/18 A2982 RMK A01 T02800175  RH  053%=      5-min Rain = 0
KWE1 241714Z 18021KT 28/17 A2982 RMK A01 T02810174  RH  052%=      5-min Rain = 0
KWE1 241715Z 19023KT 28/18 A2982 RMK A01 T02820178  RH  053%=      5-min Rain = 0
KWE1 241716Z 19021KT 28/18 A2982 RMK A01 T02810176  RH  053%=      5-min Rain = 0
KWE1 241717Z 19021KT 28/18 A2982 RMK A01 T02800178  RH  054%=      5-min Rain = 0
KWE1 241718Z 18021KT 28/18 A2982 RMK A01 T02800176  RH  053%=      5-min Rain = 0
KWE1 241719Z 18018KT 28/18 A2982 RMK A01 T02790176  RH  053%=      5-min Rain = 0
KWE1 241720Z 18019G25KT 28/18 A2982 RMK A01 T02800178  RH  054%=      5-min Rain = 0
KWE1 241721Z 18021KT 28/17 A2982 RMK A01 T02810174  RH  052%=      5-min Rain = 0
KWE1 241722Z 18021KT 28/17 A2982 RMK A01 T02810174  RH  052%=      5-min Rain = 0
KWE1 241723Z 18020KT 28/17 A2982 RMK A01 T02820173  RH  052%=      5-min Rain = 0
KWE1 241724Z 18022KT 28/17 A2982 RMK A01 T02820172  RH  051%=      5-min Rain = 0
KWE1 241725Z 19021KT 28/17 A2982 RMK A01 T02820173  RH  052%=      5-min Rain = 0
KWE1 241726Z 19021KT 28/18 A2982 RMK A01 T02830177  RH  053%=      5-min Rain = 0
KWE1 241727Z 19020KT 28/18 A2982 RMK A01 T02840177  RH  052%=      5-min Rain = 0
KWE1 241728Z 20021KT 28/18 A2982 RMK A01 T02840175  RH  052%=      5-min Rain = 0
KWE1 241729Z 19023KT 28/17 A2981 RMK A01 T02830174  RH  052%=      5-min Rain = 0
KWE1 241730Z 19024KT 28/18 A2981 RMK A01 T02830176  RH  052%=      5-min Rain = 0
KWE1 241731Z 19020KT 28/18 A2981 RMK A01 T02840177  RH  053%=      5-min Rain = 0
KWE1 241732Z 18017KT 29/18 A2982 RMK A01 T02850180  RH  053%=      5-min Rain = 0
KWE1 241733Z 18019KT 29/18 A2982 RMK A01 T02880179  RH  052%=      5-min Rain = 0
KWE1 241734Z 17019G24KT 29/18 A2981 RMK A01 T02890178  RH  051%=      5-min Rain = 0
KWE1 241735Z 18018KT 29/18 A2981 RMK A01 T02890178  RH  051%=      5-min Rain = 0
KWE1 241736Z 18019KT 29/18 A2981 RMK A01 T02900176  RH  050%=      5-min Rain = 0
KWE1 241737Z 18020KT 29/18 A2981 RMK A01 T02890177  RH  051%=      5-min Rain = 0
KWE1 241738Z 17019KT 29/18 A2981 RMK A01 T02890176  RH  051%=      5-min Rain = 0
KWE1 241739Z 18017KT 29/18 A2981 RMK A01 T02880179  RH  052%=      5-min Rain = 0
KWE1 241740Z 17015KT 29/18 A2981 RMK A01 T02880179  RH  052%=      5-min Rain = 0
KWE1 241741Z 18014KT 29/18 A2981 RMK A01 T02900184  RH  053%=      5-min Rain = 0
KWE1 241742Z 19019G25KT 29/18 A2981 RMK A01 T02920179  RH  051%=      5-min Rain = 0
KWE1 241743Z 19021KT 29/18 A2981 RMK A01 T02910180  RH  051%=      5-min Rain = 0
KWE1 241744Z 18018KT 29/18 A2981 RMK A01 T02900178  RH  051%=      5-min Rain = 0
KWE1 241745Z 18022KT 29/18 A2981 RMK A01 T02910175  RH  050%=      5-min Rain = 0
KWE1 241746Z 19021KT 29/18 A2981 RMK A01 T02900175  RH  050%=      5-min Rain = 0
KWE1 241747Z 19021KT 29/18 A2981 RMK A01 T02900177  RH  050%=      5-min Rain = 0
KWE1 241748Z 20018KT 29/18 A2981 RMK A01 T02900177  RH  050%=      5-min Rain = 0
KWE1 241749Z 20020KT 29/18 A2981 RMK A01 T02900178  RH  051%=      5-min Rain = 0
KWE1 241750Z 20019KT 29/18 A2981 RMK A01 T02900178  RH  051%=      5-min Rain = 0
KWE1 241751Z 20020G25KT 29/18 A2981 RMK A01 T02900179  RH  051%=      5-min Rain = 0
KWE1 241752Z 19018KT 29/18 A2981 RMK A01 T02890177  RH  051%=      5-min Rain = 0
KWE1 241753Z 19017G23KT 29/18 A2981 RMK A01 T02890179  RH  052%=      5-min Rain = 0
KWE1 241754Z 19019KT 29/18 A2981 RMK A01 T02910182  RH  052%=      5-min Rain = 0
KWE1 241755Z 19018KT 29/18 A2981 RMK A01 T02920180  RH  051%=      5-min Rain = 0
KWE1 241756Z 20018KT 29/18 A2981 RMK A01 T02920178  RH  050%=      5-min Rain = 0
KWE1 241757Z 20017KT 29/18 A2981 RMK A01 T02900176  RH  050%=      5-min Rain = 0
KWE1 241758Z 19015KT 29/18 A2981 RMK A01 T02890181  RH  052%=      5-min Rain = 0
KWE1 241759Z 18018KT 29/18 A2981 RMK A01 T02910181  RH  052%=      5-min Rain = 0
KWE1 241800Z 17021G26KT 29/18 A2981 RMK A01 T02920179  RH  050%=      5-min Rain = 0
KWE1 241801Z 18022KT 29/18 A2981 RMK A01 T02930181  RH  051%=      5-min Rain = 0
KWE1 241802Z 19023KT 29/18 A298 RMK A01 T02940179  RH  050%=      5-min Rain = 0
KWE1 241803Z 19021KT 29/18 A2981 RMK A01 T02930179  RH  050%=      5-min Rain = 0
KWE1 241804Z 19020KT 29/18 A2981 RMK A01 T02920179  RH  050%=      5-min Rain = 0
KWE1 241805Z 19018KT 29/18 A298 RMK A01 T02920178  RH  050%=      5-min Rain = 0
KWE1 241806Z 20018KT 29/18 A298 RMK A01 T02920178  RH  050%=      5-min Rain = 0
KWE1 241807Z 20015KT 29/18 A298 RMK A01 T02910180  RH  051%=      5-min Rain = 0
KWE1 241808Z 20020G26KT 29/18 A298 RMK A01 T02930182  RH  051%=      5-min Rain = 0
KWE1 241809Z 20019KT 29/18 A298 RMK A01 T02930179  RH  050%=      5-min Rain = 0
KWE1 241810Z 19019KT 29/18 A298 RMK A01 T02930179  RH  050%=      5-min Rain = 0
KWE1 241811Z 19018KT 29/18 A298 RMK A01 T02920180  RH  051%=      5-min Rain = 0
KWE1 241812Z 19019G24KT 29/18 A298 RMK A01 T02930182  RH  051%=      5-min Rain = 0
KWE1 241813Z 18020KT 29/18 A298 RMK A01 T02930180  RH  050%=      5-min Rain = 0
KWE1 241814Z 19017KT 29/18 A298 RMK A01 T02930180  RH  051%=      5-min Rain = 0
KWE1 241815Z 20014KT 29/18 A298 RMK A01 T02940181  RH  051%=      5-min Rain = 0
KWE1 241816Z 18018KT 29/18 A298 RMK A01 T02940181  RH  051%=      5-min Rain = 0
KWE1 241817Z 19017KT 29/18 A298 RMK A01 T02940182  RH  051%=      5-min Rain = 0
KWE1 241818Z 18019KT 30/19 A298 RMK A01 T02950185  RH  052%=      5-min Rain = 0
KWE1 241819Z 18019KT 30/18 A298 RMK A01 T02960182  RH  050%=      5-min Rain = 0
KWE1 241820Z 21016G21KT 30/18 A298 RMK A01 T02960184  RH  051%=      5-min Rain = 0
KWE1 241821Z 21015KT 30/19 A298 RMK A01 T03000185  RH  050%=      5-min Rain = 0
KWE1 241822Z 20014KT 30/18 A298 RMK A01 T03010182  RH  049%=      5-min Rain = 0
KWE1 241823Z 19019KT 30/18 A298 RMK A01 T03000183  RH  049%=      5-min Rain = 0
KWE1 241824Z 18020G25KT 30/18 A298 RMK A01 T02990182  RH  049%=      5-min Rain = 0
KWE1 241825Z 18019KT 30/18 A298 RMK A01 T02980180  RH  049%=      5-min Rain = 0
KWE1 241826Z 18017KT 30/18 A298 RMK A01 T02970184  RH  050%=      5-min Rain = 0
KWE1 241827Z 18018KT 30/19 A298 RMK A01 T02990187  RH  051%=      5-min Rain = 0
KWE1 241828Z 18020KT 30/18 A298 RMK A01 T03010184  RH  049%=      5-min Rain = 0
KWE1 241829Z 18017KT 30/18 A298 RMK A01 T03000184  RH  050%=      5-min Rain = 0
KWE1 241830Z 19017KT 30/18 A2979 RMK A01 T02990184  RH  050%=      5-min Rain = 0
KWE1 241831Z 17014KT 30/18 A2979 RMK A01 T02990182  RH  049%=      5-min Rain = 0
KWE1 241832Z 17018G24KT 30/19 A2979 RMK A01 T02990185  RH  051%=      5-min Rain = 0
KWE1 241833Z 17019KT 30/18 A2979 RMK A01 T03000183  RH  049%=      5-min Rain = 0
KWE1 241834Z 18020G25KT 30/19 A2979 RMK A01 T03010185  RH  050%=      5-min Rain = 0
KWE1 241835Z 19017KT 30/19 A2979 RMK A01 T03010185  RH  050%=      5-min Rain = 0
KWE1 241836Z 20018KT 30/19 A2979 RMK A01 T03010185  RH  050%=      5-min Rain = 0
KWE1 241837Z 19014KT 30/18 A2979 RMK A01 T02990183  RH  050%=      5-min Rain = 0
KWE1 241838Z 17016KT 30/19 A2979 RMK A01 T02990186  RH  051%=      5-min Rain = 0
KWE1 241839Z 17015KT 30/18 A2979 RMK A01 T03000182  RH  049%=      5-min Rain = 0
KWE1 241840Z 18016KT 30/19 A2979 RMK A01 T03000185  RH  050%=      5-min Rain = 0
KWE1 241841Z 18016KT 30/18 A2979 RMK A01 T03010180  RH  048%=      5-min Rain = 0
KWE1 241842Z 19019KT 30/18 A2979 RMK A01 T03010181  RH  049%=      5-min Rain = 0
KWE1 241843Z 19016KT 30/18 A2979 RMK A01 T03000180  RH  049%=      5-min Rain = 0
KWE1 241844Z 18015KT 30/18 A2979 RMK A01 T03000184  RH  050%=      5-min Rain = 0
KWE1 241845Z 19017KT 30/18 A2979 RMK A01 T03010184  RH  049%=      5-min Rain = 0
KWE1 241846Z 19014KT 30/19 A2979 RMK A01 T03030191  RH  051%=      5-min Rain = 0
KWE1 241847Z 19017KT 31/19 A2978 RMK A01 T03070186  RH  048%=      5-min Rain = 0
KWE1 241848Z 19019KT 31/18 A2978 RMK A01 T03070184  RH  048%=      5-min Rain = 0
KWE1 241849Z 19016KT 30/18 A2978 RMK A01 T03040183  RH  048%=      5-min Rain = 0
KWE1 241850Z 19019KT 30/18 A2978 RMK A01 T03030184  RH  049%=      5-min Rain = 0
KWE1 241851Z 19020KT 30/18 A2978 RMK A01 T03020184  RH  049%=      5-min Rain = 0
KWE1 241852Z 18017KT 30/19 A2978 RMK A01 T03030185  RH  049%=      5-min Rain = 0
KWE1 241853Z 18016KT 30/18 A2978 RMK A01 T03030182  RH  048%=      5-min Rain = 0
KWE1 241854Z 18013KT 30/18 A2978 RMK A01 T03020182  RH  049%=      5-min Rain = 0
KWE1 241855Z 18014KT 30/18 A2978 RMK A01 T03020183  RH  049%=      5-min Rain = 0
KWE1 241856Z 19019KT 30/19 A2978 RMK A01 T03040186  RH  049%=      5-min Rain = 0
KWE1 241857Z 19018KT 31/18 A2978 RMK A01 T03050184  RH  048%=      5-min Rain = 0
KWE1 241858Z 18015G20KT 31/19 A2978 RMK A01 T03050185  RH  049%=      5-min Rain = 0
KWE1 241859Z 18019KT 31/18 A2977 RMK A01 T03050182  RH  048%=      5-min Rain = 0
KWE1 241900Z 19019KT 31/18 A2977 RMK A01 T03050183  RH  048%=      5-min Rain = 0
KWE1 241901Z 19018KT 31/18 A2977 RMK A01 T03060183  RH  048%=      5-min Rain = 0
KWE1 241902Z 19017KT 31/18 A2977 RMK A01 T03060184  RH  048%=      5-min Rain = 0
KWE1 241903Z 20019KT 31/18 A2977 RMK A01 T03050182  RH  048%=      5-min Rain = 0
KWE1 241904Z 20015KT 30/18 A2977 RMK A01 T03040182  RH  048%=      5-min Rain = 0
KWE1 241905Z 19014KT 30/19 A2977 RMK A01 T03040187  RH  050%=      5-min Rain = 0
KWE1 241906Z 18014KT 31/19 A2977 RMK A01 T03080187  RH  049%=      5-min Rain = 0
KWE1 241907Z 18016KT 31/19 A2977 RMK A01 T03090186  RH  048%=      5-min Rain = 0
KWE1 241908Z 19015KT 31/19 A2977 RMK A01 T03090189  RH  049%=      5-min Rain = 0
KWE1 241909Z 20017G22KT 31/19 A2977 RMK A01 T03110186  RH  047%=      5-min Rain = 0
KWE1 241910Z 21017KT 31/19 A2977 RMK A01 T03100185  RH  047%=      5-min Rain = 0
KWE1 241911Z 21015KT 31/18 A2976 RMK A01 T03090183  RH  047%=      5-min Rain = 0
KWE1 241912Z 20014KT 31/19 A2976 RMK A01 T03080185  RH  048%=      5-min Rain = 0
KWE1 241913Z 19017KT 31/18 A2976 RMK A01 T03090182  RH  047%=      5-min Rain = 0
KWE1 241914Z 19017G26KT 31/19 A2976 RMK A01 T03080185  RH  048%=      5-min Rain = 0
KWE1 241915Z 17018G23KT 31/19 A2976 RMK A01 T03090185  RH  047%=      5-min Rain = 0
KWE1 241916Z 17019KT 31/18 A2976 RMK A01 T03100182  RH  046%=      5-min Rain = 0
KWE1 241917Z 18015KT 31/18 A2976 RMK A01 T03100183  RH  047%=      5-min Rain = 0
KWE1 241918Z 18019KT 31/18 A2976 RMK A01 T03100182  RH  047%=      5-min Rain = 0
KWE1 241919Z 18016G21KT 31/18 A2976 RMK A01 T03090180  RH  046%=      5-min Rain = 0
KWE1 241920Z 18016KT 31/18 A2976 RMK A01 T03090179  RH  046%=      5-min Rain = 0
KWE1 241921Z 18017KT 31/18 A2976 RMK A01 T03080180  RH  046%=      5-min Rain = 0
KWE1 241922Z 18017KT 31/18 A2976 RMK A01 T03100181  RH  046%=      5-min Rain = 0
KWE1 241923Z 18019KT 31/18 A2976 RMK A01 T03120184  RH  047%=      5-min Rain = 0
KWE1 241924Z 20016KT 31/19 A2976 RMK A01 T03130185  RH  046%=      5-min Rain = 0
KWE1 241925Z 21016KT 31/19 A2975 RMK A01 T03130185  RH  047%=      5-min Rain = 0
KWE1 241926Z 19017G24KT 31/18 A2975 RMK A01 T03130184  RH  046%=      5-min Rain = 0
KWE1 241927Z 18018KT 31/18 A2975 RMK A01 T03130180  RH  045%=      5-min Rain = 0
KWE1 241928Z 17021KT 31/18 A2975 RMK A01 T03120182  RH  046%=      5-min Rain = 0
KWE1 241929Z 18022KT 31/18 A2975 RMK A01 T03120182  RH  046%=      5-min Rain = 0
KWE1 241930Z 17020KT 31/18 A2975 RMK A01 T03130179  RH  045%=      5-min Rain = 0
KWE1 241931Z 18019KT 31/18 A2975 RMK A01 T03110180  RH  046%=      5-min Rain = 0
KWE1 241932Z 18018KT 31/18 A2975 RMK A01 T03110179  RH  045%=      5-min Rain = 0
KWE1 241933Z 19017KT 31/18 A2975 RMK A01 T03110180  RH  046%=      5-min Rain = 0
KWE1 241934Z 19015KT 31/18 A2975 RMK A01 T03110179  RH  045%=      5-min Rain = 0
KWE1 241935Z 19016KT 31/18 A2975 RMK A01 T03110181  RH  046%=      5-min Rain = 0
KWE1 241936Z 18016KT 31/18 A2975 RMK A01 T03130184  RH  046%=      5-min Rain = 0
KWE1 241937Z 18015KT 31/18 A2975 RMK A01 T03140178  RH  044%=      5-min Rain = 0
KWE1 241938Z 18017KT 32/18 A2975 RMK A01 T03150183  RH  045%=      5-min Rain = 0
KWE1 241939Z 18017KT 32/18 A2975 RMK A01 T03160181  RH  045%=      5-min Rain = 0
KWE1 241940Z 18017KT 32/18 A2975 RMK A01 T03170180  RH  044%=      5-min Rain = 0
KWE1 241941Z 18017KT 32/18 A2975 RMK A01 T03160182  RH  045%=      5-min Rain = 0
KWE1 241942Z 19019KT 32/18 A2974 RMK A01 T03160176  RH  043%=      5-min Rain = 0
KWE1 241943Z 19020KT 32/18 A2974 RMK A01 T03150177  RH  044%=      5-min Rain = 0
KWE1 241944Z 20017KT 32/18 A2974 RMK A01 T03150177  RH  044%=      5-min Rain = 0
KWE1 241945Z 21017G23KT 31/17 A2974 RMK A01 T03130173  RH  043%=      5-min Rain = 0
KWE1 241946Z 20016KT 31/18 A2974 RMK A01 T03100177  RH  045%=      5-min Rain = 0
KWE1 241947Z 19019KT 31/18 A2974 RMK A01 T03110178  RH  045%=      5-min Rain = 0
KWE1 241948Z 19019KT 31/18 A2974 RMK A01 T03130176  RH  044%=      5-min Rain = 0
KWE1 241949Z 19017KT 31/18 A2974 RMK A01 T03140180  RH  045%=      5-min Rain = 0
KWE1 241950Z 18017KT 32/18 A2974 RMK A01 T03180183  RH  045%=      5-min Rain = 0
KWE1 241951Z 19017KT 32/18 A2974 RMK A01 T03190181  RH  044%=      5-min Rain = 0
KWE1 241952Z 20014KT 32/18 A2974 RMK A01 T03170177  RH  043%=      5-min Rain = 0
KWE1 241953Z 20015KT 31/18 A2974 RMK A01 T03140179  RH  044%=      5-min Rain = 0
KWE1 241954Z 18015KT 31/18 A2974 RMK A01 T03140178  RH  044%=      5-min Rain = 0
KWE1 241955Z 20016G21KT 32/18 A2974 RMK A01 T03150182  RH  045%=      5-min Rain = 0
KWE1 241956Z 20019G24KT 32/18 A2974 RMK A01 T03190183  RH  044%=      5-min Rain = 0
KWE1 241957Z 20019KT 32/18 A2974 RMK A01 T03190180  RH  044%=      5-min Rain = 0
KWE1 241958Z 20019KT 32/18 A2974 RMK A01 T03160177  RH  043%=      5-min Rain = 0
KWE1 241959Z 20017KT 31/18 A2974 RMK A01 T03130176  RH  044%=      5-min Rain = 0
KWE1 242000Z 20013KT 31/18 A2974 RMK A01 T03120179  RH  045%=      5-min Rain = 0
KWE1 242001Z 20016KT 31/18 A2974 RMK A01 T03130177  RH  044%=      5-min Rain = 0
KWE1 242002Z 19017KT 31/18 A2974 RMK A01 T03130180  RH  045%=      5-min Rain = 0
KWE1 242003Z 19017KT 32/18 A2974 RMK A01 T03160184  RH  046%=      5-min Rain = 0
KWE1 242004Z 19018KT 32/18 A2974 RMK A01 T03180181  RH  044%=      5-min Rain = 0
KWE1 242005Z 18017G22KT 32/18 A2974 RMK A01 T03150179  RH  044%=      5-min Rain = 0
KWE1 242006Z 18019KT 31/18 A2974 RMK A01 T03140179  RH  045%=      5-min Rain = 0
KWE1 242007Z 20014G21KT 32/18 A2974 RMK A01 T03160180  RH  044%=      5-min Rain = 0
KWE1 242008Z 19013KT 32/19 A2974 RMK A01 T03170185  RH  045%=      5-min Rain = 0
KWE1 242009Z 19017G24KT 32/18 A2974 RMK A01 T03200184  RH  045%=      5-min Rain = 0
KWE1 242010Z 20017G23KT 32/18 A2974 RMK A01 T03210182  RH  044%=      5-min Rain = 0
KWE1 242011Z 19019KT 32/18 A2973 RMK A01 T03190181  RH  044%=      5-min Rain = 0
KWE1 242012Z 19021KT 32/18 A2974 RMK A01 T03170180  RH  044%=      5-min Rain = 0
KWE1 242013Z 20016KT 32/18 A2974 RMK A01 T03160180  RH  044%=      5-min Rain = 0
KWE1 242014Z 20015KT 32/18 A2974 RMK A01 T03160181  RH  044%=      5-min Rain = 0
KWE1 242015Z 19012KT 32/18 A2974 RMK A01 T03160183  RH  045%=      5-min Rain = 0
KWE1 242016Z 18016KT 32/18 A2974 RMK A01 T03180180  RH  044%=      5-min Rain = 0
KWE1 242017Z 19015G20KT 32/18 A2973 RMK A01 T03190180  RH  044%=      5-min Rain = 0
KWE1 242018Z 18018KT 32/18 A2973 RMK A01 T03190180  RH  043%=      5-min Rain = 0
KWE1 242019Z 18017KT 32/18 A2974 RMK A01 T03200179  RH  043%=      5-min Rain = 0
KWE1 242020Z 18014KT 32/18 A2974 RMK A01 T03190179  RH  043%=      5-min Rain = 0
KWE1 242021Z 19013KT 32/18 A2973 RMK A01 T03200179  RH  043%=      5-min Rain = 0
KWE1 242022Z 18015KT 32/18 A2973 RMK A01 T03200178  RH  043%=      5-min Rain = 0
KWE1 242023Z 20015KT 32/18 A2973 RMK A01 T03200181  RH  044%=      5-min Rain = 0
KWE1 242024Z 20016KT 32/18 A2973 RMK A01 T03210181  RH  044%=      5-min Rain = 0
KWE1 242025Z 21015KT 32/18 A2973 RMK A01 T03200182  RH  044%=      5-min Rain = 0
KWE1 242026Z 20016KT 32/18 A2973 RMK A01 T03180181  RH  044%=      5-min Rain = 0
KWE1 242027Z 19019G24KT 32/18 A2973 RMK A01 T03200184  RH  044%=      5-min Rain = 0
KWE1 242028Z 20016KT 32/18 A2973 RMK A01 T03210181  RH  043%=      5-min Rain = 0
KWE1 242029Z 18019KT 32/18 A2973 RMK A01 T03210181  RH  044%=      5-min Rain = 0
KWE1 242030Z 19015G21KT 32/18 A2973 RMK A01 T03200180  RH  043%=      5-min Rain = 0
KWE1 242031Z 19015KT 32/18 A2973 RMK A01 T03200181  RH  044%=      5-min Rain = 0
KWE1 242032Z 20013KT 32/18 A2973 RMK A01 T03200180  RH  043%=      5-min Rain = 0
KWE1 242033Z 21012KT 32/18 A2973 RMK A01 T03190182  RH  044%=      5-min Rain = 0
KWE1 242034Z 20013KT 32/18 A2973 RMK A01 T03190179  RH  043%=      5-min Rain = 0
KWE1 242035Z 21017KT 32/18 A2973 RMK A01 T03200178  RH  043%=      5-min Rain = 0
KWE1 242036Z 21015KT 32/18 A2973 RMK A01 T03210183  RH  044%=      5-min Rain = 0
KWE1 242037Z 21016KT 32/18 A2973 RMK A01 T03230180  RH  043%=      5-min Rain = 0
KWE1 242038Z 22013KT 32/18 A2973 RMK A01 T03210179  RH  043%=      5-min Rain = 0
KWE1 242039Z 21011KT 32/18 A2973 RMK A01 T03190182  RH  044%=      5-min Rain = 0
KWE1 242040Z 19013KT 32/18 A2973 RMK A01 T03210183  RH  044%=      5-min Rain = 0
KWE1 242041Z 21015KT 33/19 A2973 RMK A01 T03250187  RH  044%=      5-min Rain = 0
KWE1 242042Z 20016KT 33/18 A2972 RMK A01 T03270182  RH  042%=      5-min Rain = 0
KWE1 242043Z 20015KT 32/18 A2973 RMK A01 T03240181  RH  043%=      5-min Rain = 0
KWE1 242044Z 21016KT 32/18 A2972 RMK A01 T03220181  RH  043%=      5-min Rain = 0
KWE1 242045Z 19015KT 32/18 A2973 RMK A01 T03180178  RH  043%=      5-min Rain = 0
KWE1 242046Z 17010KT 32/18 A2973 RMK A01 T03170177  RH  043%=      5-min Rain = 0
KWE1 242047Z 17013KT 32/18 A2973 RMK A01 T03180179  RH  044%=      5-min Rain = 0
KWE1 242048Z 17014KT 32/18 A2973 RMK A01 T03200182  RH  044%=      5-min Rain = 0
KWE1 242049Z 16014KT 32/18 A2972 RMK A01 T03220181  RH  043%=      5-min Rain = 0
KWE1 242050Z 17014KT 32/18 A2972 RMK A01 T03230182  RH  043%=      5-min Rain = 0
KWE1 242051Z 17014KT 32/18 A2972 RMK A01 T03240182  RH  043%=      5-min Rain = 0
KWE1 242052Z 19016KT 32/18 A2972 RMK A01 T03220180  RH  043%=      5-min Rain = 0
KWE1 242053Z 17016KT 32/18 A2972 RMK A01 T03190179  RH  044%=      5-min Rain = 0
KWE1 242054Z 17018KT 32/18 A2972 RMK A01 T03170178  RH  044%=      5-min Rain = 0
KWE1 242055Z 17017KT 32/18 A2972 RMK A01 T03180179  RH  044%=      5-min Rain = 0
KWE1 242056Z 18015KT 32/18 A2972 RMK A01 T03200180  RH  043%=      5-min Rain = 0
KWE1 242057Z 18012KT 32/18 A2972 RMK A01 T03220179  RH  042%=      5-min Rain = 0
KWE1 242058Z 18015KT 32/18 A2972 RMK A01 T03220181  RH  043%=      5-min Rain = 0
KWE1 242059Z 16013KT 32/18 A2972 RMK A01 T03230180  RH  043%=      5-min Rain = 0
KWE1 242100Z 17012KT 32/18 A2972 RMK A01 T03220179  RH  043%=      5-min Rain = 0
KWE1 242101Z 17013KT 32/18 A2972 RMK A01 T03200180  RH  043%=      5-min Rain = 0
KWE1 242102Z 18017KT 32/18 A2972 RMK A01 T03190179  RH  043%=      5-min Rain = 0
KWE1 242103Z 18016KT 32/18 A2972 RMK A01 T03210181  RH  044%=      5-min Rain = 0
KWE1 242104Z 19015KT 32/18 A2972 RMK A01 T03240183  RH  043%=      5-min Rain = 0
KWE1 242105Z 18011KT 33/18 A2972 RMK A01 T03270183  RH  042%=      5-min Rain = 0
KWE1 242106Z 17012KT 33/18 A2972 RMK A01 T03290182  RH  042%=      5-min Rain = 0
KWE1 242107Z 17011KT 33/18 A2972 RMK A01 T03300179  RH  041%=      5-min Rain = 0
KWE1 242108Z 20010KT 33/18 A2972 RMK A01 T03290181  RH  041%=      5-min Rain = 0
KWE1 242109Z 19007KT 33/19 A2972 RMK A01 T03290185  RH  043%=      5-min Rain = 0
KWE1 242110Z 20012G18KT 33/18 A2972 RMK A01 T03290184  RH  042%=      5-min Rain = 0
KWE1 242111Z 19013KT 33/18 A2972 RMK A01 T03270180  RH  042%=      5-min Rain = 0
KWE1 242112Z 17013KT 32/18 A2972 RMK A01 T03220178  RH  042%=      5-min Rain = 0
KWE1 242113Z 16015KT 32/18 A2972 RMK A01 T03220178  RH  042%=      5-min Rain = 0
KWE1 242114Z 17014KT 32/18 A2972 RMK A01 T03240179  RH  042%=      5-min Rain = 0
KWE1 242115Z 18014KT 33/18 A2972 RMK A01 T03250179  RH  042%=      5-min Rain = 0
KWE1 242116Z 20014KT 33/18 A2972 RMK A01 T03260181  RH  042%=      5-min Rain = 0
KWE1 242117Z 20010KT 33/18 A2972 RMK A01 T03270183  RH  042%=      5-min Rain = 0
KWE1 242118Z 20011KT 33/18 A2972 RMK A01 T03300184  RH  042%=      5-min Rain = 0
KWE1 242119Z 19010KT 33/18 A2972 RMK A01 T03300179  RH  041%=      5-min Rain = 0
KWE1 242120Z 18010KT 33/18 A2972 RMK A01 T03270180  RH  042%=      5-min Rain = 0
KWE1 242121Z 18009KT 33/18 A2972 RMK A01 T03270184  RH  043%=      5-min Rain = 0
KWE1 242122Z 18008KT 33/18 A2972 RMK A01 T03260182  RH  042%=      5-min Rain = 0
KWE1 242123Z 17010KT 33/19 A2972 RMK A01 T03250185  RH  044%=      5-min Rain = 0
KWE1 242124Z 17013KT 33/18 A2972 RMK A01 T03260183  RH  043%=      5-min Rain = 0
KWE1 242125Z 19012KT 33/18 A2972 RMK A01 T03270182  RH  042%=      5-min Rain = 0
KWE1 242126Z 18013KT 33/19 A2972 RMK A01 T03290186  RH  043%=      5-min Rain = 0
KWE1 242127Z 18014KT 33/18 A2971 RMK A01 T03320183  RH  041%=      5-min Rain = 0
KWE1 242128Z 18015KT 33/18 A2971 RMK A01 T03320181  RH  041%=      5-min Rain = 0
KWE1 242129Z 20014KT 33/18 A2971 RMK A01 T03300179  RH  041%=      5-min Rain = 0
KWE1 242130Z 21011KT 33/18 A2971 RMK A01 T03260180  RH  042%=      5-min Rain = 0
KWE1 242131Z 20010KT 32/18 A2971 RMK A01 T03240179  RH  042%=      5-min Rain = 0
KWE1 242132Z 19009KT 32/18 A2971 RMK A01 T03240181  RH  043%=      5-min Rain = 0
KWE1 242133Z 15011G16KT 32/18 A2971 RMK A01 T03240180  RH  042%=      5-min Rain = 0
KWE1 242134Z 17013KT 33/18 A2971 RMK A01 T03250180  RH  042%=      5-min Rain = 0
KWE1 242135Z 17014KT 33/18 A2971 RMK A01 T03280182  RH  042%=      5-min Rain = 0
KWE1 242136Z 17012KT 33/18 A297 RMK A01 T03290182  RH  042%=      5-min Rain = 0
KWE1 242137Z 18011KT 33/18 A297 RMK A01 T03300183  RH  042%=      5-min Rain = 0
KWE1 242138Z 18009KT 33/19 A297 RMK A01 T03300185  RH  042%=      5-min Rain = 0
KWE1 242139Z 17008KT 33/18 A297 RMK A01 T03310182  RH  041%=      5-min Rain = 0
KWE1 242140Z 16012KT 33/18 A297 RMK A01 T03310181  RH  041%=      5-min Rain = 0
KWE1 242141Z 16011KT 33/18 A297 RMK A01 T03310180  RH  041%=      5-min Rain = 0
KWE1 242142Z 15009KT 33/18 A297 RMK A01 T03290178  RH  041%=      5-min Rain = 0
KWE1 242143Z 16011KT 33/18 A297 RMK A01 T03290182  RH  042%=      5-min Rain = 0
KWE1 242144Z 17010KT 33/18 A297 RMK A01 T03300182  RH  041%=      5-min Rain = 0
KWE1 242145Z 16010KT 33/18 A297 RMK A01 T03320183  RH  041%=      5-min Rain = 0
KWE1 242146Z 17010KT 33/18 A297 RMK A01 T03330182  RH  041%=      5-min Rain = 0
KWE1 242147Z 17009KT 33/18 A297 RMK A01 T03320180  RH  041%=      5-min Rain = 0
KWE1 242148Z 19012KT 33/18 A297 RMK A01 T03290182  RH  042%=      5-min Rain = 0
KWE1 242149Z 17012KT 33/18 A2969 RMK A01 T03290181  RH  041%=      5-min Rain = 0
KWE1 242150Z 15015KT 33/18 A2969 RMK A01 T03290180  RH  041%=      5-min Rain = 0
KWE1 242151Z 16015KT 33/18 A2969 RMK A01 T03290180  RH  041%=      5-min Rain = 0
KWE1 242152Z 16012KT 33/18 A2969 RMK A01 T03290179  RH  041%=      5-min Rain = 0
KWE1 242153Z 15011KT 33/18 A2969 RMK A01 T03280180  RH  041%=      5-min Rain = 0
KWE1 242154Z 14012KT 33/18 A2969 RMK A01 T03280179  RH  041%=      5-min Rain = 0
KWE1 242155Z 13013KT 33/18 A2969 RMK A01 T03280180  RH  042%=      5-min Rain = 0
KWE1 242156Z 15013KT 33/18 A2969 RMK A01 T03280180  RH  041%=      5-min Rain = 0
KWE1 242157Z 19016KT 33/18 A2969 RMK A01 T03310182  RH  041%=      5-min Rain = 0
KWE1 242158Z 18013KT 33/18 A2969 RMK A01 T03320180  RH  041%=      5-min Rain = 0
KWE1 242159Z 16013KT 33/18 A2969 RMK A01 T03300178  RH  041%=      5-min Rain = 0
KWE1 242200Z 16014KT 33/18 A2969 RMK A01 T03290178  RH  041%=      5-min Rain = 0
KWE1 242201Z 17014G19KT 33/18 A2969 RMK A01 T03290175  RH  040%=      5-min Rain = 0
KWE1 242202Z 15011KT 33/17 A2969 RMK A01 T03260174  RH  040%=      5-min Rain = 0
KWE1 242203Z 16012KT 33/18 A2969 RMK A01 T03260177  RH  041%=      5-min Rain = 0
KWE1 242204Z 15011KT 33/18 A2969 RMK A01 T03270177  RH  041%=      5-min Rain = 0
KWE1 242205Z 14010KT 33/18 A2968 RMK A01 T03280177  RH  041%=      5-min Rain = 0
KWE1 242206Z 14012KT 33/18 A2968 RMK A01 T03290178  RH  041%=      5-min Rain = 0
KWE1 242207Z 15013KT 33/18 A2968 RMK A01 T03290180  RH  041%=      5-min Rain = 0
KWE1 242208Z 15013KT 33/18 A2968 RMK A01 T03290180  RH  041%=      5-min Rain = 0
KWE1 242209Z 16013KT 33/18 A2968 RMK A01 T03300180  RH  041%=      5-min Rain = 0
KWE1 242210Z 16012KT 33/18 A2968 RMK A01 T03310180  RH  041%=      5-min Rain = 0
KWE1 242211Z 17012KT 33/18 A2968 RMK A01 T03320181  RH  041%=      5-min Rain = 0
KWE1 242212Z 17011KT 33/18 A2968 RMK A01 T03310177  RH  040%=      5-min Rain = 0
KWE1 242213Z 15010KT 33/18 A2968 RMK A01 T03280176  RH  040%=      5-min Rain = 0
KWE1 242214Z 17014KT 33/18 A2968 RMK A01 T03270177  RH  041%=      5-min Rain = 0
KWE1 242215Z 16011KT 33/18 A2968 RMK A01 T03270175  RH  040%=      5-min Rain = 0
KWE1 242216Z 15010KT 33/18 A2968 RMK A01 T03260175  RH  040%=      5-min Rain = 0
KWE1 242217Z 14010KT 33/18 A2968 RMK A01 T03250176  RH  041%=      5-min Rain = 0
KWE1 242218Z 14008KT 33/18 A2968 RMK A01 T03260176  RH  041%=      5-min Rain = 0
KWE1 242219Z 15010KT 33/18 A2968 RMK A01 T03270177  RH  041%=      5-min Rain = 0
KWE1 242220Z 16013KT 33/18 A2967 RMK A01 T03290177  RH  041%=      5-min Rain = 0
KWE1 242221Z 15011KT 33/18 A2968 RMK A01 T03290177  RH  040%=      5-min Rain = 0
KWE1 242222Z 17010KT 33/18 A2968 RMK A01 T03300181  RH  041%=      5-min Rain = 0
KWE1 242223Z 16010KT 33/18 A2968 RMK A01 T03320179  RH  040%=      5-min Rain = 0
KWE1 242224Z 17011KT 33/18 A2968 RMK A01 T03330179  RH  040%=      5-min Rain = 0
KWE1 242225Z 17011KT 33/18 A2968 RMK A01 T03340178  RH  040%=      5-min Rain = 0
KWE1 242226Z 15010KT 33/18 A2968 RMK A01 T03320176  RH  039%=      5-min Rain = 0
KWE1 242227Z 15013KT 33/17 A2967 RMK A01 T03320174  RH  039%=      5-min Rain = 0
KWE1 242228Z 16014KT 33/18 A2967 RMK A01 T03310175  RH  039%=      5-min Rain = 0
KWE1 242229Z 16013KT 33/17 A2967 RMK A01 T03310173  RH  039%=      5-min Rain = 0
KWE1 242230Z 15012KT 33/17 A2967 RMK A01 T03310173  RH  039%=      5-min Rain = 0
KWE1 242231Z 15012KT 33/17 A2967 RMK A01 T03300172  RH  039%=      5-min Rain = 0
KWE1 242232Z 14009KT 33/17 A2967 RMK A01 T03300171  RH  039%=      5-min Rain = 0
KWE1 242233Z 14009KT 33/17 A2967 RMK A01 T03290173  RH  039%=      5-min Rain = 0
KWE1 242234Z 13008KT 33/18 A2967 RMK A01 T03290175  RH  040%=      5-min Rain = 0
KWE1 242235Z 13008KT 33/17 A2967 RMK A01 T03290172  RH  039%=      5-min Rain = 0
KWE1 242236Z 13010KT 33/18 A2967 RMK A01 T03280175  RH  040%=      5-min Rain = 0
KWE1 242237Z 14010KT 33/18 A2967 RMK A01 T03280175  RH  040%=      5-min Rain = 0
KWE1 242238Z 15011KT 33/18 A2967 RMK A01 T03290175  RH  040%=      5-min Rain = 0
KWE1 242239Z 16010KT 33/18 A2967 RMK A01 T03310177  RH  040%=      5-min Rain = 0
KWE1 242240Z 15008KT 33/18 A2967 RMK A01 T03330178  RH  040%=      5-min Rain = 0
KWE1 242241Z 14008KT 33/18 A2967 RMK A01 T03340176  RH  039%=      5-min Rain = 0
KWE1 242242Z 15009KT 33/18 A2967 RMK A01 T03340178  RH  040%=      5-min Rain = 0
KWE1 242243Z 13011KT 33/18 A2967 RMK A01 T03330175  RH  039%=      5-min Rain = 0
KWE1 242244Z 13011KT 33/18 A2967 RMK A01 T03310175  RH  039%=      5-min Rain = 0
KWE1 242245Z 13012KT 33/18 A2967 RMK A01 T03300175  RH  040%=      5-min Rain = 0
KWE1 242246Z 13011KT 33/18 A2967 RMK A01 T03280175  RH  040%=      5-min Rain = 0
KWE1 242247Z 14011KT 33/18 A2967 RMK A01 T03280175  RH  040%=      5-min Rain = 0
KWE1 242248Z 13012KT 33/17 A2967 RMK A01 T03270173  RH  040%=      5-min Rain = 0
KWE1 242249Z 14012KT 33/17 A2967 RMK A01 T03270174  RH  040%=      5-min Rain = 0
KWE1 242250Z 14012KT 33/17 A2967 RMK A01 T03270173  RH  040%=      5-min Rain = 0
KWE1 242251Z 14010KT 33/17 A2967 RMK A01 T03270173  RH  040%=      5-min Rain = 0
KWE1 242252Z 14008KT 33/17 A2966 RMK A01 T03270174  RH  040%=      5-min Rain = 0
KWE1 242253Z 14010G15KT 33/18 A2966 RMK A01 T03280176  RH  040%=      5-min Rain = 0
KWE1 242254Z 16013KT 33/17 A2966 RMK A01 T03300173  RH  039%=      5-min Rain = 0
KWE1 242255Z 16012KT 33/17 A2966 RMK A01 T03300174  RH  039%=      5-min Rain = 0
KWE1 242256Z 15014KT 33/17 A2966 RMK A01 T03320173  RH  039%=      5-min Rain = 0
KWE1 242257Z 15013KT 33/17 A2967 RMK A01 T03320173  RH  039%=      5-min Rain = 0
KWE1 242258Z 16013KT 33/17 A2967 RMK A01 T03300171  RH  039%=      5-min Rain = 0
KWE1 242259Z 16011KT 33/17 A2967 RMK A01 T03290172  RH  039%=      5-min Rain = 0
KWE1 242300Z 16010KT 33/17 A2967 RMK A01 T03290174  RH  040%=      5-min Rain = 0
KWE1 242301Z 16011KT 33/17 A2967 RMK A01 T03290174  RH  040%=      5-min Rain = 0
KWE1 242302Z 14010KT 33/17 A2967 RMK A01 T03300172  RH  039%=      5-min Rain = 0
KWE1 242303Z 14009KT 33/17 A2967 RMK A01 T03300173  RH  039%=      5-min Rain = 0
KWE1 242304Z 14008KT 33/17 A2967 RMK A01 T03280172  RH  039%=      5-min Rain = 0
KWE1 242305Z 14013KT 33/17 A2967 RMK A01 T03280172  RH  039%=      5-min Rain = 0
KWE1 242306Z 15012KT 33/17 A2967 RMK A01 T03270173  RH  040%=      5-min Rain = 0
KWE1 242307Z 17015KT 33/17 A2967 RMK A01 T03270172  RH  040%=      5-min Rain = 0
KWE1 242308Z 16013KT 33/17 A2967 RMK A01 T03280173  RH  039%=      5-min Rain = 0
KWE1 242309Z 17010KT 33/17 A2967 RMK A01 T03280170  RH  039%=      5-min Rain = 0
KWE1 242310Z 18013KT 33/17 A2967 RMK A01 T03270171  RH  039%=      5-min Rain = 0
KWE1 242311Z 16013KT 33/17 A2967 RMK A01 T03270172  RH  040%=      5-min Rain = 0
KWE1 242312Z 16014KT 33/17 A2967 RMK A01 T03270171  RH  039%=      5-min Rain = 0
KWE1 242313Z 15011KT 33/17 A2967 RMK A01 T03270170  RH  039%=      5-min Rain = 0
KWE1 242314Z 16013KT 33/17 A2967 RMK A01 T03270172  RH  040%=      5-min Rain = 0
KWE1 242315Z 17010KT 33/17 A2966 RMK A01 T03280170  RH  039%=      5-min Rain = 0
KWE1 242316Z 16010KT 33/17 A2966 RMK A01 T03270174  RH  040%=      5-min Rain = 0
KWE1 242317Z 15011KT 33/17 A2966 RMK A01 T03280174  RH  040%=      5-min Rain = 0
KWE1 242318Z 14010KT 33/17 A2966 RMK A01 T03290171  RH  039%=      5-min Rain = 0
KWE1 242319Z 15010KT 33/17 A2966 RMK A01 T03280173  RH  040%=      5-min Rain = 0
KWE1 242320Z 14008KT 33/17 A2966 RMK A01 T03280172  RH  040%=      5-min Rain = 0
KWE1 242321Z 14009KT 33/17 A2966 RMK A01 T03290174  RH  040%=      5-min Rain = 0
KWE1 242322Z 13010KT 33/17 A2966 RMK A01 T03290173  RH  039%=      5-min Rain = 0
KWE1 242323Z 13008KT 33/17 A2966 RMK A01 T03280173  RH  040%=      5-min Rain = 0
KWE1 242324Z 14009KT 33/17 A2966 RMK A01 T03270174  RH  040%=      5-min Rain = 0
KWE1 242325Z 16008KT 33/17 A2965 RMK A01 T03270174  RH  040%=      5-min Rain = 0
KWE1 242326Z 17011KT 33/17 A2965 RMK A01 T03280174  RH  040%=      5-min Rain = 0
KWE1 242327Z 15012KT 33/17 A2965 RMK A01 T03290174  RH  040%=      5-min Rain = 0
KWE1 242328Z 15009KT 33/17 A2965 RMK A01 T03280172  RH  039%=      5-min Rain = 0
KWE1 242329Z 16011KT 33/17 A2965 RMK A01 T03280173  RH  040%=      5-min Rain = 0
KWE1 242330Z 16011KT 33/17 A2965 RMK A01 T03280174  RH  040%=      5-min Rain = 0
KWE1 242331Z 16011KT 33/17 A2965 RMK A01 T03280170  RH  039%=      5-min Rain = 0
KWE1 242332Z 16010KT 33/17 A2965 RMK A01 T03270171  RH  039%=      5-min Rain = 0
KWE1 242333Z 17010G17KT 33/17 A2965 RMK A01 T03270173  RH  040%=      5-min Rain = 0
KWE1 242334Z 16015KT 33/18 A2965 RMK A01 T03280175  RH  040%=      5-min Rain = 0
KWE1 242335Z 16014KT 33/17 A2965 RMK A01 T03290173  RH  040%=      5-min Rain = 0
KWE1 242336Z 16012KT 33/17 A2965 RMK A01 T03280172  RH  039%=      5-min Rain = 0
KWE1 242337Z 15013KT 33/17 A2965 RMK A01 T03280174  RH  040%=      5-min Rain = 0
KWE1 242338Z 15013KT 33/17 A2965 RMK A01 T03280173  RH  039%=      5-min Rain = 0
KWE1 242339Z 16012KT 33/17 A2965 RMK A01 T03280172  RH  040%=      5-min Rain = 0
KWE1 242340Z 16012KT 33/17 A2965 RMK A01 T03280174  RH  040%=      5-min Rain = 0
KWE1 242341Z 16013KT 33/17 A2965 RMK A01 T03280173  RH  040%=      5-min Rain = 0
KWE1 242342Z 16013KT 33/17 A2965 RMK A01 T03280173  RH  040%=      5-min Rain = 0
KWE1 242343Z 16011KT 33/17 A2964 RMK A01 T03270171  RH  040%=      5-min Rain = 0
KWE1 242344Z 17012KT 33/17 A2964 RMK A01 T03260172  RH  040%=      5-min Rain = 0
KWE1 242345Z 15010KT 33/17 A2964 RMK A01 T03260172  RH  040%=      5-min Rain = 0
KWE1 242346Z 15008KT 33/17 A2964 RMK A01 T03260174  RH  040%=      5-min Rain = 0
KWE1 242347Z 14009KT 33/18 A2964 RMK A01 T03270176  RH  041%=      5-min Rain = 0
KWE1 242348Z 14011KT 33/17 A2964 RMK A01 T03280174  RH  040%=      5-min Rain = 0
KWE1 242349Z 13009KT 33/17 A2964 RMK A01 T03270174  RH  040%=      5-min Rain = 0
KWE1 242350Z 13008KT 33/17 A2964 RMK A01 T03260174  RH  040%=      5-min Rain = 0
KWE1 242351Z 14010G15KT 33/17 A2964 RMK A01 T03250174  RH  040%=      5-min Rain = 0
KWE1 242352Z 15010KT 32/17 A2964 RMK A01 T03240173  RH  040%=      5-min Rain = 0
KWE1 242353Z 15011KT 32/17 A2964 RMK A01 T03240173  RH  040%=      5-min Rain = 0
KWE1 242354Z 14010KT 32/17 A2964 RMK A01 T03230172  RH  041%=      5-min Rain = 0
KWE1 242355Z 14011KT 32/17 A2964 RMK A01 T03220171  RH  040%=      5-min Rain = 0
KWE1 242356Z 13010KT 32/17 A2964 RMK A01 T03210172  RH  041%=      5-min Rain = 0
KWE1 242357Z 14009KT 32/17 A2964 RMK A01 T03190171  RH  041%=      5-min Rain = 0
KWE1 242358Z 13008KT 32/17 A2964 RMK A01 T03180171  RH  041%=      5-min Rain = 0
KWE1 242359Z 13011KT 32/17 A2964 RMK A01 T03180170  RH  041%=      5-min Rain = 0
KWE1 250000Z 13009KT 32/17 A2964 RMK A01 T03170170  RH  041%=      5-min Rain = 0
KWE1 250001Z 14009KT 32/17 A2964 RMK A01 T03170170  RH  042%=      5-min Rain = 0
KWE1 250002Z 14011KT 32/17 A2964 RMK A01 T03160171  RH  042%=      5-min Rain = 0
KWE1 250003Z 14012KT 32/17 A2964 RMK A01 T03160171  RH  042%=      5-min Rain = 0
KWE1 250004Z 14011KT 32/17 A2964 RMK A01 T03160172  RH  042%=      5-min Rain = 0
KWE1 250005Z 14010KT 32/17 A2964 RMK A01 T03160172  RH  042%=      5-min Rain = 0
KWE1 250006Z 13009KT 32/17 A2964 RMK A01 T03160172  RH  042%=      5-min Rain = 0
KWE1 250007Z 12009KT 32/17 A2964 RMK A01 T03150172  RH  042%=      5-min Rain = 0
KWE1 250008Z 10011KT 32/17 A2964 RMK A01 T03150172  RH  042%=      5-min Rain = 0
KWE1 250009Z 10022G27KT 31/18 A2965 RMK A01 T03130179  RH  045%=      5-min Rain = 0
KWE1 250010Z 11023G33KT 30/19 A2965 RMK A01 T02950185  RH  052%=      5-min Rain = 0
KWE1 250011Z 11027G34KT 28/18 A2965 RMK A01 T02780184  RH  057%=      5-min Rain = 0
KWE1 250012Z 11028G36KT 27/19 A2965 RMK A01 T02690185  RH  060%=      5-min Rain = 0
KWE1 250013Z 10026KT 26/19 A2965 RMK A01 T02640185  RH  062%=      5-min Rain = 0
KWE1 250014Z 10021G26KT 26/19 A2965 RMK A01 T02620186  RH  063%=      5-min Rain = 0
KWE1 250015Z 11024G30KT 26/19 A2965 RMK A01 T02600186  RH  064%=      5-min Rain = 0
KWE1 250016Z 11019G25KT 26/19 A2966 RMK A01 T02580186  RH  065%=      5-min Rain = 0
KWE1 250017Z 11020G26KT 26/19 A2966 RMK A01 T02580187  RH  065%=      5-min Rain = 0
KWE1 250018Z 11019KT 26/19 A2966 RMK A01 T02570188  RH  065%=      5-min Rain = 0
KWE1 250019Z 11024G30KT 26/19 A2966 RMK A01 T02570187  RH  066%=      5-min Rain = 0
KWE1 250020Z 11024G30KT 26/19 A2966 RMK A01 T02560187  RH  066%=      5-min Rain = 0
KWE1 250021Z 11022KT 26/19 A2967 RMK A01 T02560188  RH  066%=      5-min Rain = 0
KWE1 250022Z 11022G30KT 26/19 A2967 RMK A01 T02560188  RH  066%=      5-min Rain = 0
KWE1 250023Z 12022G27KT 25/19 A2967 RMK A01 T02540187  RH  066%=      5-min Rain = 0
KWE1 250024Z 12019G24KT 25/19 A2967 RMK A01 T02540187  RH  067%=      5-min Rain = 0
KWE1 250025Z 12019G25KT 25/19 A2967 RMK A01 T02540188  RH  067%=      5-min Rain = 0
KWE1 250026Z 12018G23KT 25/19 A2967 RMK A01 T02530187  RH  067%=      5-min Rain = 0
KWE1 250027Z 10016G22KT 25/19 A2967 RMK A01 T02530188  RH  067%=      5-min Rain = 0
KWE1 250028Z 10019KT 25/19 A2967 RMK A01 T02520188  RH  067%=      5-min Rain = 0
KWE1 250029Z 11020KT 25/19 A2968 RMK A01 T02500187  RH  068%=      5-min Rain = 0
KWE1 250030Z 10018G23KT 25/19 A2968 RMK A01 T02500187  RH  068%=      5-min Rain = 0
KWE1 250031Z 10018KT 25/19 A2968 RMK A01 T02490187  RH  068%=      5-min Rain = 0
KWE1 250032Z 10016KT 25/19 A2968 RMK A01 T02490188  RH  069%=      5-min Rain = 0
KWE1 250033Z 10015KT 25/19 A2968 RMK A01 T02480188  RH  069%=      5-min Rain = 0
KWE1 250034Z 09014KT 25/19 A2968 RMK A01 T02470188  RH  070%=      5-min Rain = 0
KWE1 250035Z 09016KT 25/19 A2968 RMK A01 T02470189  RH  070%=      5-min Rain = 0
KWE1 250036Z 09013KT 25/19 A2968 RMK A01 T02470188  RH  070%=      5-min Rain = 0
KWE1 250037Z 09013KT 25/19 A2968 RMK A01 T02460189  RH  070%=      5-min Rain = 0
KWE1 250038Z 10015KT 25/19 A2968 RMK A01 T02460189  RH  071%=      5-min Rain = 0
KWE1 250039Z 10013G18KT 25/19 A2967 RMK A01 T02450189  RH  071%=      5-min Rain = 0
KWE1 250040Z 09012KT 25/19 A2968 RMK A01 T02450189  RH  071%=      5-min Rain = 0
KWE1 250041Z 09009KT 25/19 A2968 RMK A01 T02460190  RH  071%=      5-min Rain = 0
KWE1 250042Z 08011KT 25/19 A2968 RMK A01 T02450190  RH  071%=      5-min Rain = 0
KWE1 250043Z 08012KT 25/19 A2968 RMK A01 T02450190  RH  071%=      5-min Rain = 0
KWE1 250044Z 08012KT 24/19 A2968 RMK A01 T02440190  RH  072%=      5-min Rain = 0
KWE1 250045Z 08012KT 24/19 A2968 RMK A01 T02430189  RH  072%=      5-min Rain = 0
KWE1 250046Z 09010KT 24/19 A2968 RMK A01 T02420190  RH  073%=      5-min Rain = 0
KWE1 250047Z 10010KT 24/19 A2968 RMK A01 T02410188  RH  072%=      5-min Rain = 0
KWE1 250048Z 09010KT 24/19 A2968 RMK A01 T02420189  RH  072%=      5-min Rain = 0
KWE1 250049Z 08010KT 24/19 A2968 RMK A01 T02410189  RH  073%=      5-min Rain = 0
KWE1 250050Z 08010KT 24/19 A2968 RMK A01 T02410190  RH  073%=      5-min Rain = 0
KWE1 250051Z 09007KT 24/19 A2968 RMK A01 T02400190  RH  073%=      5-min Rain = 0
KWE1 250052Z 08011KT 24/19 A2968 RMK A01 T02400190  RH  074%=      5-min Rain = 0
KWE1 250053Z 07011KT 24/19 A2968 RMK A01 T02390189  RH  073%=      5-min Rain = 0
KWE1 250054Z 08012KT 24/19 A2967 RMK A01 T02390188  RH  073%=      5-min Rain = 0
KWE1 250055Z 07011KT 24/19 A2968 RMK A01 T02390189  RH  073%=      5-min Rain = 0
KWE1 250056Z 07013KT 24/19 A2967 RMK A01 T02380189  RH  074%=      5-min Rain = 0
KWE1 250057Z 08014KT 24/19 A2967 RMK A01 T02380189  RH  074%=      5-min Rain = 0
KWE1 250058Z 09018G23KT 24/19 A2967 RMK A01 T02380187  RH  073%=      5-min Rain = 0
KWE1 250059Z 09014KT 24/19 A2967 RMK A01 T02370185  RH  073%=      5-min Rain = 0
KWE1 250100Z 08015KT 24/19 A2967 RMK A01 T02370185  RH  073%=      5-min Rain = 0
KWE1 250101Z 09014G20KT 24/18 A2967 RMK A01 T02360183  RH  072%=      5-min Rain = 0
KWE1 250102Z 10013G18KT 24/18 A2967 RMK A01 T02350184  RH  073%=      5-min Rain = 0
KWE1 250103Z 10014G19KT 24/18 A2967 RMK A01 T02350183  RH  073%=      5-min Rain = 0
KWE1 250104Z 11011G17KT 23/18 A2967 RMK A01 T02340182  RH  073%=      5-min Rain = 0
KWE1 250105Z 11013G19KT 23/18 A2967 RMK A01 T02340182  RH  073%=      5-min Rain = 0
KWE1 250106Z 11016G21KT 23/18 A2967 RMK A01 T02330181  RH  073%=      5-min Rain = 0
KWE1 250107Z 11014KT 23/18 A2967 RMK A01 T02320180  RH  072%=      5-min Rain = 0
KWE1 250108Z 12017G23KT 23/18 A2967 RMK A01 T02320179  RH  072%=      5-min Rain = 0
KWE1 250109Z 12018G24KT 23/18 A2966 RMK A01 T02320179  RH  072%=      5-min Rain = 0
KWE1 250110Z 12022KT 23/18 A2966 RMK A01 T02320178  RH  072%=      5-min Rain = 0
KWE1 250111Z 12020KT 23/18 A2966 RMK A01 T02310177  RH  072%=      5-min Rain = 0
KWE1 250112Z 13018KT 23/18 A2966 RMK A01 T02310177  RH  072%=      5-min Rain = 0
KWE1 250113Z 13018KT 23/18 A2966 RMK A01 T02310178  RH  072%=      5-min Rain = 0
KWE1 250114Z 13022G27KT 23/18 A2966 RMK A01 T02310177  RH  071%=      5-min Rain = 0
KWE1 250115Z 13020G26KT 23/18 A2966 RMK A01 T02310176  RH  071%=      5-min Rain = 0
KWE1 250116Z 13021G28KT 23/18 A2966 RMK A01 T02310175  RH  071%=      5-min Rain = 0
KWE1 250117Z 13025KT 23/18 A2966 RMK A01 T02310175  RH  071%=      5-min Rain = 0
KWE1 250118Z 14020G26KT 23/18 A2966 RMK A01 T02310175  RH  070%=      5-min Rain = 0
KWE1 250119Z 14022G27KT 23/18 A2966 RMK A01 T02310175  RH  070%=      5-min Rain = 0
KWE1 250120Z 14023G29KT 23/17 A2966 RMK A01 T02320174  RH  070%=      5-min Rain = 0
KWE1 250121Z 14023G28KT 23/17 A2966 RMK A01 T02320173  RH  070%=      5-min Rain = 0
KWE1 250122Z 14023G28KT 23/17 A2966 RMK A01 T02320173  RH  069%=      5-min Rain = 0
KWE1 250123Z 15022G30KT 23/17 A2966 RMK A01 T02320173  RH  069%=      5-min Rain = 0
KWE1 250124Z 14024G30KT 23/17 A2965 RMK A01 T02320172  RH  069%=      5-min Rain = 0
KWE1 250125Z 14023G28KT 23/17 A2965 RMK A01 T02320171  RH  069%=      5-min Rain = 0
KWE1 250126Z 14025KT 23/17 A2965 RMK A01 T02310171  RH  069%=      5-min Rain = 0
KWE1 250127Z 14026G33KT 23/17 A2964 RMK A01 T02320170  RH  068%=      5-min Rain = 0
KWE1 250128Z 14026KT 23/17 A2964 RMK A01 T02320170  RH  068%=      5-min Rain = 0
KWE1 250129Z 14025KT 23/17 A2964 RMK A01 T02310168  RH  068%=      5-min Rain = 0
KWE1 250130Z 14026G31KT 23/17 A2963 RMK A01 T02310168  RH  068%=      5-min Rain = 0
KWE1 250131Z 15024G32KT 23/17 A2963 RMK A01 T02310167  RH  067%=      5-min Rain = 0
KWE1 250132Z 15026KT 23/17 A2963 RMK A01 T02300167  RH  068%=      5-min Rain = 0
KWE1 250133Z 15030G38KT 23/17 A2963 RMK A01 T02300167  RH  067%=      5-min Rain = 0
KWE1 250134Z 15026KT 23/17 A2963 RMK A01 T02300167  RH  067%=      5-min Rain = 0
KWE1 250135Z 15028KT 23/17 A2963 RMK A01 T02300167  RH  067%=      5-min Rain = 0
KWE1 250136Z 16027G32KT 23/17 A2963 RMK A01 T02300166  RH  067%=      5-min Rain = 0
KWE1 250137Z 16029G34KT 23/17 A2963 RMK A01 T02300167  RH  067%=      5-min Rain = 0
KWE1 250138Z 16028G34KT 23/17 A2964 RMK A01 T02300167  RH  067%=      5-min Rain = 0
KWE1 250139Z 16030G37KT 23/17 A2963 RMK A01 T02300167  RH  068%=      5-min Rain = 0
KWE1 250140Z 16027G34KT 23/17 A2964 RMK A01 T02300168  RH  068%=      5-min Rain = 0
KWE1 250141Z 16031G37KT 23/17 A2963 RMK A01 T02300168  RH  068%=      5-min Rain = 0
KWE1 250142Z 16026G31KT 23/17 A2964 RMK A01 T02300168  RH  068%=      5-min Rain = 0
KWE1 250143Z 16031KT 23/17 A2963 RMK A01 T02290169  RH  069%=      5-min Rain = 0
KWE1 250144Z 16026G32KT 23/17 A2963 RMK A01 T02290169  RH  069%=      5-min Rain = 0
KWE1 250145Z 16023KT 23/17 A2964 RMK A01 T02290169  RH  069%=      5-min Rain = 0
KWE1 250146Z 16027G32KT 23/17 A2963 RMK A01 T02290169  RH  069%=      5-min Rain = 0
KWE1 250147Z 16028G35KT 23/17 A2964 RMK A01 T02290168  RH  068%=      5-min Rain = 0
KWE1 250148Z 16027KT 23/17 A2964 RMK A01 T02290167  RH  068%=      5-min Rain = 0
KWE1 250149Z 16023KT 23/17 A2964 RMK A01 T02290167  RH  068%=      5-min Rain = 0
KWE1 250150Z 17025G31KT 23/17 A2964 RMK A01 T02290167  RH  068%=      5-min Rain = 0
KWE1 250151Z 16025KT 23/17 A2964 RMK A01 T02290166  RH  068%=      5-min Rain = 0
KWE1 250152Z 16025KT 23/17 A2964 RMK A01 T02290166  RH  067%=      5-min Rain = 0
KWE1 250153Z 16022G27KT 23/17 A2964 RMK A01 T02290166  RH  068%=      5-min Rain = 0
KWE1 250154Z 16020G27KT 23/17 A2965 RMK A01 T02290167  RH  068%=      5-min Rain = 0
KWE1 250155Z 15019KT 23/17 A2965 RMK A01 T02290168  RH  068%=      5-min Rain = 0
KWE1 250156Z 16017KT 23/17 A2966 RMK A01 T02280167  RH  068%=      5-min Rain = 0
KWE1 250157Z 16019G26KT 23/17 A2966 RMK A01 T02280168  RH  069%=      5-min Rain = 0
KWE1 250158Z 16018G25KT 23/17 A2965 RMK A01 T02280168  RH  069%=      5-min Rain = 0
KWE1 250159Z 15022G27KT 23/17 A2966 RMK A01 T02280168  RH  069%=      5-min Rain = 0
KWE1 250200Z 15018KT 23/17 A2966 RMK A01 T02280167  RH  068%=      5-min Rain = 0
KWE1 250201Z 15020KT 23/17 A2966 RMK A01 T02280167  RH  068%=      5-min Rain = 0
KWE1 250202Z 15017KT 23/17 A2966 RMK A01 T02290167  RH  068%=      5-min Rain = 0
KWE1 250203Z 14015KT 23/17 A2966 RMK A01 T02290168  RH  068%=      5-min Rain = 0
KWE1 250204Z 14017KT 23/17 A2967 RMK A01 T02290168  RH  068%=      5-min Rain = 0
KWE1 250205Z 14015KT 23/17 A2967 RMK A01 T02290167  RH  068%=      5-min Rain = 0
KWE1 250206Z 14016KT 23/17 A2967 RMK A01 T02300168  RH  068%=      5-min Rain = 0
KWE1 250207Z 14011KT 23/17 A2967 RMK A01 T02300168  RH  068%=      5-min Rain = 0
KWE1 250208Z 14011KT 23/17 A2968 RMK A01 T02300168  RH  068%=      5-min Rain = 0
KWE1 250209Z 14012KT 23/17 A2968 RMK A01 T02300169  RH  068%=      5-min Rain = 0
KWE1 250210Z 13008KT 23/17 A2968 RMK A01 T02300169  RH  068%=      5-min Rain = 0
KWE1 250211Z 14008KT 23/17 A2969 RMK A01 T02300169  RH  069%=      5-min Rain = 0
KWE1 250212Z 13008KT 23/17 A2969 RMK A01 T02300169  RH  069%=      5-min Rain = 0
KWE1 250213Z 12009KT 23/17 A2969 RMK A01 T02300169  RH  068%=      5-min Rain = 0
KWE1 250214Z 11007KT 23/17 A2969 RMK A01 T02300169  RH  068%=      5-min Rain = 0
KWE1 250215Z 11008KT 23/17 A297 RMK A01 T02300169  RH  068%=      5-min Rain = 0
KWE1 250216Z 12008KT 23/17 A297 RMK A01 T02290168  RH  068%=      5-min Rain = 0
KWE1 250217Z 11008KT 23/17 A297 RMK A01 T02290168  RH  069%=      5-min Rain = 0
KWE1 250218Z 12011KT 23/17 A2971 RMK A01 T02290169  RH  069%=      5-min Rain = 0
KWE1 250219Z 11010KT 23/17 A2971 RMK A01 T02290168  RH  069%=      5-min Rain = 0
KWE1 250220Z 12011KT 23/17 A2972 RMK A01 T02290168  RH  068%=      5-min Rain = 0
KWE1 250221Z 12012KT 23/17 A2972 RMK A01 T02290168  RH  069%=      5-min Rain = 0
KWE1 250222Z 11010KT 23/17 A2972 RMK A01 T02290168  RH  069%=      5-min Rain = 0
KWE1 250223Z 12010KT 23/17 A2973 RMK A01 T02290168  RH  069%=      5-min Rain = 0
KWE1 250224Z 13009KT 23/17 A2974 RMK A01 T02290168  RH  069%=      5-min Rain = 0
KWE1 250225Z 12008KT 23/17 A2974 RMK A01 T02290169  RH  069%=      5-min Rain = 0
KWE1 250226Z 12010KT 23/17 A2974 RMK A01 T02290169  RH  069%=      5-min Rain = 0
KWE1 250227Z 13012KT 23/17 A2974 RMK A01 T02290170  RH  069%=      5-min Rain = 0
KWE1 250228Z 12012KT 23/17 A2975 RMK A01 T02290170  RH  069%=      5-min Rain = 0
KWE1 250229Z 12010KT 23/17 A2975 RMK A01 T02280170  RH  069%=      5-min Rain = 0
KWE1 250230Z 13010KT 23/17 A2975 RMK A01 T02280170  RH  070%=      5-min Rain = 0
KWE1 250231Z 12011KT 23/17 A2975 RMK A01 T02280170  RH  070%=      5-min Rain = 0
KWE1 250232Z 15012KT 23/17 A2976 RMK A01 T02270170  RH  070%=      5-min Rain = 0
KWE1 250233Z 16012KT 23/17 A2977 RMK A01 T02280171  RH  070%=      5-min Rain = 0
KWE1 250234Z 17013KT 23/17 A2977 RMK A01 T02270172  RH  071%=      5-min Rain = 0
KWE1 250235Z 18016KT 23/17 A2978 RMK A01 T02280171  RH  070%=      5-min Rain = 0
KWE1 250236Z 19016KT 23/17 A2978 RMK A01 T02280171  RH  070%=      5-min Rain = 0
KWE1 250237Z 18015KT 23/17 A2979 RMK A01 T02280172  RH  070%=      5-min Rain = 0
KWE1 250238Z 18014KT 23/17 A2979 RMK A01 T02290172  RH  070%=      5-min Rain = 0
KWE1 250239Z 18013KT 23/17 A2979 RMK A01 T02280172  RH  071%=      5-min Rain = 0
KWE1 250240Z 18015KT 23/17 A2979 RMK A01 T02290173  RH  071%=      5-min Rain = 0
KWE1 250241Z 17013KT 23/17 A2979 RMK A01 T02280173  RH  071%=      5-min Rain = 0
KWE1 250242Z 17013KT 23/17 A2979 RMK A01 T02280174  RH  072%=      5-min Rain = 0
KWE1 250243Z 17013G19KT 23/18 A2979 RMK A01 T02280175  RH  072%=      5-min Rain = 0
KWE1 250244Z 17015KT 23/17 A2979 RMK A01 T02270173  RH  072%=      5-min Rain = 0
KWE1 250245Z 17015KT 23/17 A2979 RMK A01 T02270173  RH  072%=      5-min Rain = 0
KWE1 250246Z 17012KT 23/17 A2979 RMK A01 T02270174  RH  072%=      5-min Rain = 0
KWE1 250247Z 18011KT 23/17 A2979 RMK A01 T02270174  RH  072%=      5-min Rain = 0
KWE1 250248Z 19008KT 23/18 A2979 RMK A01 T02260175  RH  073%=      5-min Rain = 0
KWE1 250249Z 17007KT 23/18 A2979 RMK A01 T02260175  RH  073%=      5-min Rain = 0
KWE1 250250Z 16005KT 23/18 A2979 RMK A01 T02260176  RH  073%=      5-min Rain = 0
KWE1 250251Z 19009KT 23/18 A2979 RMK A01 T02260175  RH  073%=      5-min Rain = 0
KWE1 250252Z 21012KT 23/17 A298 RMK A01 T02260174  RH  073%=      5-min Rain = 0
KWE1 250253Z 21011KT 23/18 A298 RMK A01 T02260175  RH  073%=      5-min Rain = 0
KWE1 250254Z 22012KT 23/18 A2981 RMK A01 T02260175  RH  073%=      5-min Rain = 0
KWE1 250255Z 21013KT 23/17 A2981 RMK A01 T02260174  RH  072%=      5-min Rain = 0
KWE1 250256Z 22010KT 23/17 A2981 RMK A01 T02270174  RH  072%=      5-min Rain = 0
KWE1 250257Z 26008KT 23/18 A2981 RMK A01 T02270176  RH  073%=      5-min Rain = 0
KWE1 250258Z 26010KT 23/18 A2981 RMK A01 T02270177  RH  073%=      5-min Rain = 0
KWE1 250259Z 25011KT 23/18 A2981 RMK A01 T02260179  RH  075%=      5-min Rain = 0
KWE1 250300Z 27012G17KT 22/18 A2982 RMK A01 T02230178  RH  076%=      5-min Rain = 0
KWE1 250301Z 28019G25KT 22/17 A2982 RMK A01 T02180173  RH  076%=      5-min Rain = 0
KWE1 250302Z 28016G22KT 21/17 A2982 RMK A01 T02080168  RH  078%=      5-min Rain = 0
KWE1 250303Z 29014G19KT 20/17 A2982 RMK A01 T02020169  RH  081%=      5-min Rain = 0
KWE1 250304Z 28017G22KT 20/17 A2982 RMK A01 T01980169  RH  083%=      5-min Rain = 0
KWE1 250305Z 28016G21KT 20/17 A2982 RMK A01 T01960169  RH  084%=      5-min Rain = 0
KWE1 250306Z 28018G24KT 19/17 A2982 RMK A01 T01940168  RH  085%=      5-min Rain = 0
KWE1 250307Z 28020G25KT 19/17 A2982 RMK A01 T01940167  RH  085%=      5-min Rain = 0
KWE1 250308Z 29018KT 19/17 A2982 RMK A01 T01930167  RH  085%=      5-min Rain = 0
KWE1 250309Z 29019KT 19/17 A2982 RMK A01 T01910167  RH  086%=      5-min Rain = 0
KWE1 250310Z 30014G19KT 19/17 A2982 RMK A01 T01910166  RH  085%=      5-min Rain = 0
KWE1 250311Z 30016KT 19/17 A2982 RMK A01 T01900165  RH  085%=      5-min Rain = 0
KWE1 250312Z 30011KT 19/17 A2982 RMK A01 T01890165  RH  086%=      5-min Rain = 0
KWE1 250313Z 31012KT 19/17 A2982 RMK A01 T01880165  RH  087%=      5-min Rain = 0
KWE1 250314Z 31013KT 19/17 A2982 RMK A01 T01880165  RH  086%=      5-min Rain = 0
KWE1 250315Z 31013G19KT 19/16 A2982 RMK A01 T01880164  RH  086%=      5-min Rain = 0
KWE1 250316Z 31011G16KT 19/16 A2983 RMK A01 T01870164  RH  086%=      5-min Rain = 0
KWE1 250317Z 31013KT 19/16 A2983 RMK A01 T01870164  RH  086%=      5-min Rain = 0
KWE1 250318Z 32012KT 19/16 A2983 RMK A01 T01870164  RH  086%=      5-min Rain = 0
KWE1 250319Z 32014KT 19/16 A2983 RMK A01 T01870164  RH  086%=      5-min Rain = 0
KWE1 250320Z 32014KT 19/16 A2982 RMK A01 T01870163  RH  086%=      5-min Rain = 0
KWE1 250321Z 32012KT 19/16 A2982 RMK A01 T01860163  RH  087%=      5-min Rain = 0
KWE1 250322Z 32011KT 19/16 A2982 RMK A01 T01860164  RH  087%=      5-min Rain = 0
KWE1 250323Z 32012KT 19/16 A2981 RMK A01 T01850163  RH  087%=      5-min Rain = 0
KWE1 250324Z 32012G17KT 18/16 A2981 RMK A01 T01840163  RH  088%=      5-min Rain = 0
KWE1 250325Z 32010KT 18/16 A2981 RMK A01 T01830163  RH  088%=      5-min Rain = 0
KWE1 250326Z 32012G17KT 18/16 A2981 RMK A01 T01820162  RH  088%=      5-min Rain = 0
KWE1 250327Z 31013G19KT 18/16 A2981 RMK A01 T01820161  RH  088%=      5-min Rain = 0
KWE1 250328Z 31009KT 18/16 A2981 RMK A01 T01810161  RH  088%=      5-min Rain = 0
KWE1 250329Z 31010KT 18/16 A2981 RMK A01 T01800162  RH  089%=      5-min Rain = 0
KWE1 250330Z 31011KT 18/16 A298 RMK A01 T01800162  RH  089%=      5-min Rain = 0
KWE1 250331Z 31010KT 18/16 A298 RMK A01 T01790162  RH  089%=      5-min Rain = 0
KWE1 250332Z 30009KT 18/16 A298 RMK A01 T01790163  RH  090%=      5-min Rain = 0
KWE1 250333Z 31010KT 18/16 A298 RMK A01 T01790163  RH  091%=      5-min Rain = 0
KWE1 250334Z 31011KT 18/16 A298 RMK A01 T01790163  RH  091%=      5-min Rain = 0
KWE1 250335Z 32010KT 18/16 A298 RMK A01 T01790164  RH  091%=      5-min Rain = 0
KWE1 250336Z 33010KT 18/16 A2981 RMK A01 T01790164  RH  091%=      5-min Rain = 0
KWE1 250337Z 34009KT 18/16 A2981 RMK A01 T01780164  RH  091%=      5-min Rain = 0
KWE1 250338Z 34008KT 18/17 A2981 RMK A01 T01790165  RH  092%=      5-min Rain = 0
KWE1 250339Z 34008KT 18/17 A2981 RMK A01 T01790165  RH  092%=      5-min Rain = 0
KWE1 250340Z 33009KT 18/17 A2981 RMK A01 T01790166  RH  092%=      5-min Rain = 0
KWE1 250341Z 33008KT 18/17 A2982 RMK A01 T01790166  RH  092%=      5-min Rain = 0
KWE1 250342Z 34007KT 18/17 A2982 RMK A01 T01790166  RH  092%=      5-min Rain = 0
KWE1 250343Z 35008KT 18/17 A2982 RMK A01 T01790166  RH  092%=      5-min Rain = 0
KWE1 250344Z 35008KT 18/17 A2982 RMK A01 T01790165  RH  092%=      5-min Rain = 0
KWE1 250345Z 36006KT 18/17 A2982 RMK A01 T01790165  RH  092%=      5-min Rain = 0
KWE1 250346Z 35004KT 18/17 A2982 RMK A01 T01790166  RH  092%=      5-min Rain = 0
KWE1 250347Z 35005KT 18/17 A2982 RMK A01 T01800166  RH  092%=      5-min Rain = 0
KWE1 250348Z 35005KT 18/17 A2982 RMK A01 T01790166  RH  092%=      5-min Rain = 0
KWE1 250349Z 34004KT 18/17 A2982 RMK A01 T01800166  RH  092%=      5-min Rain = 0
KWE1 250350Z 35005KT 18/17 A2982 RMK A01 T01800167  RH  092%=      5-min Rain = 0
KWE1 250351Z 35005KT 18/17 A2982 RMK A01 T01800166  RH  092%=      5-min Rain = 0
KWE1 250352Z 35006KT 18/17 A2982 RMK A01 T01800165  RH  091%=      5-min Rain = 0
KWE1 250353Z 36007KT 18/17 A2982 RMK A01 T01800165  RH  091%=      5-min Rain = 0
KWE1 250354Z 00007KT 18/17 A2982 RMK A01 T01810165  RH  090%=      5-min Rain = 0
KWE1 250355Z 36008KT 18/16 A2982 RMK A01 T01810164  RH  090%=      5-min Rain = 0
KWE1 250356Z 00008G13KT 18/16 A2982 RMK A01 T01810163  RH  089%=      5-min Rain = 0
KWE1 250357Z 01010KT 18/16 A2982 RMK A01 T01810163  RH  089%=      5-min Rain = 0
KWE1 250358Z 00012KT 18/16 A2983 RMK A01 T01810163  RH  089%=      5-min Rain = 0
KWE1 250359Z 01012KT 18/16 A2983 RMK A01 T01810163  RH  089%=      5-min Rain = 0
KWE1 250400Z 00013KT 18/16 A2983 RMK A01 T01800163  RH  090%=      5-min Rain = 0
KWE1 250401Z 01013G18KT 18/16 A2983 RMK A01 T01790162  RH  090%=      5-min Rain = 0
KWE1 250402Z 01012KT 18/16 A2983 RMK A01 T01780162  RH  091%=      5-min Rain = 0
KWE1 250403Z 01010KT 18/16 A2983 RMK A01 T01770162  RH  091%=      5-min Rain = 0
KWE1 250404Z 02011KT 18/16 A2983 RMK A01 T01770163  RH  091%=      5-min Rain = 0
KWE1 250405Z 02008KT 18/16 A2983 RMK A01 T01770162  RH  091%=      5-min Rain = 0
KWE1 250406Z 02010KT 18/16 A2983 RMK A01 T01770163  RH  092%=      5-min Rain = 0
KWE1 250407Z 02009KT 18/16 A2983 RMK A01 T01760163  RH  092%=      5-min Rain = 0
KWE1 250408Z 02010KT 18/16 A2983 RMK A01 T01760163  RH  092%=      5-min Rain = 0
KWE1 250409Z 02010KT 18/16 A2983 RMK A01 T01760163  RH  092%=      5-min Rain = 0
KWE1 250410Z 02008KT 18/16 A2983 RMK A01 T01760163  RH  092%=      5-min Rain = 0
KWE1 250411Z 03007KT 18/16 A2983 RMK A01 T01760163  RH  092%=      5-min Rain = 0
KWE1 250412Z 03008KT 18/16 A2983 RMK A01 T01760163  RH  092%=      5-min Rain = 0
KWE1 250413Z 03009KT 18/16 A2983 RMK A01 T01760163  RH  092%=      5-min Rain = 0
KWE1 250414Z 03008KT 18/16 A2983 RMK A01 T01760162  RH  092%=      5-min Rain = 0
KWE1 250415Z 03008KT 18/16 A2984 RMK A01 T01760163  RH  092%=      5-min Rain = 0
KWE1 250416Z 04008KT 18/16 A2984 RMK A01 T01760162  RH  091%=      5-min Rain = 0
KWE1 250417Z 04008KT 18/16 A2984 RMK A01 T01760162  RH  091%=      5-min Rain = 0
KWE1 250418Z 04007KT 18/16 A2985 RMK A01 T01760162  RH  091%=      5-min Rain = 0
KWE1 250419Z 04007KT 18/16 A2985 RMK A01 T01760162  RH  091%=      5-min Rain = 0
KWE1 250420Z 04007KT 18/16 A2985 RMK A01 T01760162  RH  091%=      5-min Rain = 0
KWE1 250421Z 04007KT 18/16 A2985 RMK A01 T01770162  RH  091%=      5-min Rain = 0
KWE1 250422Z 04007KT 18/16 A2985 RMK A01 T01770162  RH  091%=      5-min Rain = 0
KWE1 250423Z 03008KT 18/16 A2985 RMK A01 T01770163  RH  091%=      5-min Rain = 0
KWE1 250424Z 04007KT 18/16 A2986 RMK A01 T01770162  RH  091%=      5-min Rain = 0
KWE1 250425Z 03009KT 18/16 A2986 RMK A01 T01770162  RH  091%=      5-min Rain = 0
KWE1 250426Z 03007KT 18/16 A2986 RMK A01 T01780162  RH  091%=      5-min Rain = 0
KWE1 250427Z 03008KT 18/16 A2986 RMK A01 T01780162  RH  090%=      5-min Rain = 0
KWE1 250428Z 03009KT 18/16 A2986 RMK A01 T01780161  RH  090%=      5-min Rain = 0
KWE1 250429Z 03009KT 18/16 A2986 RMK A01 T01780161  RH  090%=      5-min Rain = 0
KWE1 250430Z 03011KT 18/16 A2986 RMK A01 T01780161  RH  090%=      5-min Rain = 0
KWE1 250431Z 03011KT 18/16 A2987 RMK A01 T01780160  RH  089%=      5-min Rain = 0
KWE1 250432Z 03009KT 18/16 A2987 RMK A01 T01780161  RH  089%=      5-min Rain = 0
KWE1 250433Z 03010KT 18/16 A2987 RMK A01 T01780161  RH  090%=      5-min Rain = 0
KWE1 250434Z 04010KT 18/16 A2987 RMK A01 T01780161  RH  090%=      5-min Rain = 0
KWE1 250435Z 05011KT 18/16 A2987 RMK A01 T01780161  RH  090%=      5-min Rain = 0
KWE1 250436Z 05011KT 18/16 A2988 RMK A01 T01770162  RH  091%=      5-min Rain = 0
KWE1 250437Z 06010G16KT 18/16 A2988 RMK A01 T01770163  RH  091%=      5-min Rain = 0
KWE1 250438Z 05011KT 18/16 A2988 RMK A01 T01770163  RH  092%=      5-min Rain = 0
KWE1 250439Z 06012KT 18/16 A2988 RMK A01 T01760163  RH  092%=      5-min Rain = 0
KWE1 250440Z 06011KT 18/16 A2988 RMK A01 T01760162  RH  092%=      5-min Rain = 0
KWE1 250441Z 05011G16KT 18/16 A2988 RMK A01 T01760163  RH  092%=      5-min Rain = 0
KWE1 250442Z 05012KT 18/16 A2988 RMK A01 T01750162  RH  092%=      5-min Rain = 0
KWE1 250443Z 05009KT 18/16 A2988 RMK A01 T01750162  RH  092%=      5-min Rain = 0
KWE1 250444Z 05009KT 18/16 A2988 RMK A01 T01750163  RH  092%=      5-min Rain = 0.01
KWE1 250445Z 05008KT 18/16 A2988 RMK A01 T01750163  RH  092%=      5-min Rain = 0
KWE1 250446Z 04007KT 18/16 A2988 RMK A01 T01750163  RH  092%=      5-min Rain = 0
KWE1 250447Z 04008KT 18/16 A2988 RMK A01 T01750163  RH  093%=      5-min Rain = 0
KWE1 250448Z 04011KT 18/16 A2988 RMK A01 T01750162  RH  093%=      5-min Rain = 0
KWE1 250449Z 05009KT 18/16 A2988 RMK A01 T01750162  RH  092%=      5-min Rain = 0
KWE1 250450Z 05010KT 17/16 A2988 RMK A01 T01740162  RH  092%=      5-min Rain = 0
KWE1 250451Z 05011KT 18/16 A2988 RMK A01 T01750162  RH  092%=      5-min Rain = 0
KWE1 250452Z 04010KT 18/16 A2988 RMK A01 T01750161  RH  092%=      5-min Rain = 0
KWE1 250453Z 04010KT 17/16 A2988 RMK A01 T01740161  RH  092%=      5-min Rain = 0
KWE1 250454Z 04010KT 18/16 A2988 RMK A01 T01750161  RH  092%=      5-min Rain = 0
KWE1 250455Z 03011KT 17/16 A2988 RMK A01 T01740160  RH  091%=      5-min Rain = 0
KWE1 250456Z 03010KT 17/16 A2988 RMK A01 T01740160  RH  091%=      5-min Rain = 0
KWE1 250457Z 03011KT 17/16 A2988 RMK A01 T01740160  RH  091%=      5-min Rain = 0
KWE1 250458Z 03012KT 18/16 A2988 RMK A01 T01750160  RH  091%=      5-min Rain = 0
KWE1 250459Z 04009KT 18/16 A2988 RMK A01 T01750160  RH  091%=      5-min Rain = 0

Page generated in 0.1905 seconds.